RRR9964 EGVN-EGVN
Flight info
| Callsign | RRR9964 |
|---|---|
| Flight time | N/A |
| Altitude | 33000 |
| Route | CONKO Q63 ETNAH DCT ZIPWE DCT INFEC DCT PEWBI DCT GAPLI DCT LASNO T9 BEGAS DCT XERES DCT LATRU DCT ORTOP T100 TAVSI T100 AMPIR DCT XAVIR DCT GONZA L195 LIGUM STAYINFO1/0100 DCT XENVO T100 SOTAX DCT BATIV DCT STP DCT BADOD DCT NEDRU DCT LTP DCT BULOL DCT IDAVO DCT BAGBI DCT SIZZA DCT LAULY DCT BRY DCT CLM DCT KOPOR DCT KESAX T421 ICTAM L179 SAWPE Q63 ASHUM DCT NAXAT |
| Aircraft | A332/H-SDE3GHIJ2J3J5M1RVWXY/LB2D1 |
Departure
| Time | 2026-04-25 09:56 |
|---|---|
| Airport | RAF Brize Norton (EGVN) |
Arrival
| Time | N/A |
|---|---|
| Airport | RAF Brize Norton (EGVN) |
| Time | Latitude | Longitude | Altitude | Speed | Heading |
|---|---|---|---|---|---|
| 2026-04-25 09:43 | 51.75723 | -1.57455 | 270 ft | 0 kts | 109° |
| 2026-04-25 09:48 | 51.75723 | -1.57454 | 270 ft | 0 kts | 109° |
| 2026-04-25 09:49 | 51.75722 | -1.57407 | 270 ft | 9 kts | 81° |
| 2026-04-25 09:49 | 51.75794 | -1.57335 | 270 ft | 11 kts | 20° |
| 2026-04-25 09:49 | 51.75868 | -1.57295 | 270 ft | 11 kts | 17° |
| 2026-04-25 09:49 | 51.75919 | -1.57344 | 270 ft | 10 kts | 299° |
| 2026-04-25 09:50 | 51.75923 | -1.57463 | 270 ft | 12 kts | 253° |
| 2026-04-25 09:50 | 51.75860 | -1.57538 | 270 ft | 12 kts | 201° |
| 2026-04-25 09:50 | 51.75766 | -1.57587 | 270 ft | 17 kts | 197° |
| 2026-04-25 09:50 | 51.75633 | -1.57654 | 270 ft | 22 kts | 198° |
| 2026-04-25 09:51 | 51.75477 | -1.57765 | 270 ft | 27 kts | 206° |
| 2026-04-25 09:51 | 51.75311 | -1.57912 | 270 ft | 26 kts | 208° |
| 2026-04-25 09:51 | 51.75155 | -1.58044 | 270 ft | 24 kts | 209° |
| 2026-04-25 09:51 | 51.75005 | -1.58172 | 270 ft | 25 kts | 207° |
| 2026-04-25 09:52 | 51.74842 | -1.58312 | 270 ft | 28 kts | 209° |
| 2026-04-25 09:52 | 51.74668 | -1.58479 | 270 ft | 27 kts | 227° |
| 2026-04-25 09:52 | 51.74602 | -1.58754 | 270 ft | 28 kts | 254° |
| 2026-04-25 09:52 | 51.74550 | -1.59056 | 270 ft | 28 kts | 253° |
| 2026-04-25 09:53 | 51.74489 | -1.59373 | 271 ft | 29 kts | 252° |
| 2026-04-25 09:53 | 51.74441 | -1.59656 | 270 ft | 24 kts | 255° |
| 2026-04-25 09:53 | 51.74455 | -1.59912 | 270 ft | 24 kts | 293° |
| 2026-04-25 09:53 | 51.74492 | -1.60113 | 270 ft | 12 kts | 266° |
| 2026-04-25 09:54 | 51.74500 | -1.60245 | 270 ft | 11 kts | 292° |
| 2026-04-25 09:54 | 51.74549 | -1.60337 | 270 ft | 12 kts | 316° |
| 2026-04-25 09:54 | 51.74604 | -1.60380 | 270 ft | 3 kts | 12° |
| 2026-04-25 09:54 | 51.74622 | -1.60341 | 270 ft | 7 kts | 57° |
| 2026-04-25 09:55 | 51.74666 | -1.60097 | 270 ft | 55 kts | 73° |
| 2026-04-25 09:55 | 51.74844 | -1.59133 | 271 ft | 122 kts | 74° |
| 2026-04-25 09:55 | 51.75143 | -1.57537 | 298 ft | 171 kts | 74° |
| 2026-04-25 09:55 | 51.75488 | -1.55589 | 668 ft | 187 kts | 75° |
| 2026-04-25 09:56 | 51.75844 | -1.53591 | 1482 ft | 180 kts | 73° |
| 2026-04-25 09:56 | 51.76242 | -1.51676 | 2206 ft | 184 kts | 62° |
| 2026-04-25 09:56 | 51.77239 | -1.50310 | 2535 ft | 203 kts | 18° |
| 2026-04-25 09:56 | 51.78695 | -1.50432 | 2736 ft | 224 kts | 335° |
| 2026-04-25 09:57 | 51.79846 | -1.52211 | 2920 ft | 243 kts | 295° |
| 2026-04-25 09:57 | 51.80093 | -1.54981 | 3144 ft | 260 kts | 259° |
| 2026-04-25 09:57 | 51.79596 | -1.57814 | 3671 ft | 264 kts | 249° |
| 2026-04-25 09:57 | 51.78950 | -1.60553 | 4314 ft | 264 kts | 247° |
| 2026-04-25 09:58 | 51.78255 | -1.63356 | 4970 ft | 266 kts | 247° |
| 2026-04-25 09:58 | 51.77562 | -1.66135 | 5586 ft | 268 kts | 247° |
| 2026-04-25 09:58 | 51.76883 | -1.68907 | 6203 ft | 269 kts | 250° |
| 2026-04-25 09:58 | 51.76424 | -1.71847 | 6791 ft | 272 kts | 263° |
| 2026-04-25 09:59 | 51.76474 | -1.74900 | 7339 ft | 274 kts | 275° |
| 2026-04-25 09:59 | 51.76715 | -1.77968 | 7904 ft | 276 kts | 278° |
| 2026-04-25 09:59 | 51.77022 | -1.81044 | 8482 ft | 279 kts | 279° |
| 2026-04-25 09:59 | 51.77362 | -1.84145 | 9087 ft | 281 kts | 279° |
| 2026-04-25 10:00 | 51.77708 | -1.87222 | 9674 ft | 284 kts | 279° |
| 2026-04-25 10:00 | 51.77744 | -1.90461 | 9927 ft | 287 kts | 256° |
| 2026-04-25 10:00 | 51.77127 | -1.93165 | 10028 ft | 286 kts | 245° |
| 2026-04-25 10:00 | 51.76262 | -1.96008 | 10135 ft | 287 kts | 242° |
| 2026-04-25 10:01 | 51.75003 | -1.98508 | 10282 ft | 291 kts | 217° |
| 2026-04-25 10:01 | 51.73129 | -1.99950 | 10433 ft | 309 kts | 194° |
| 2026-04-25 10:01 | 51.70974 | -2.00702 | 10601 ft | 326 kts | 194° |
| 2026-04-25 10:01 | 51.68724 | -2.01631 | 10886 ft | 337 kts | 196° |
| 2026-04-25 10:02 | 51.66466 | -2.02684 | 11430 ft | 339 kts | 198° |
| 2026-04-25 10:02 | 51.64341 | -2.04322 | 11960 ft | 341 kts | 217° |
| 2026-04-25 10:02 | 51.62724 | -2.07109 | 12510 ft | 342 kts | 238° |
| 2026-04-25 10:02 | 51.61850 | -2.10661 | 13045 ft | 345 kts | 259° |
| 2026-04-25 10:03 | 51.61806 | -2.14479 | 13558 ft | 348 kts | 275° |
| 2026-04-25 10:03 | 51.62109 | -2.18403 | 14100 ft | 351 kts | 277° |
| 2026-04-25 10:03 | 51.62438 | -2.22314 | 14583 ft | 353 kts | 277° |
| 2026-04-25 10:03 | 51.62747 | -2.26195 | 15095 ft | 354 kts | 276° |
| 2026-04-25 10:04 | 51.63039 | -2.30141 | 15599 ft | 356 kts | 276° |
| 2026-04-25 10:04 | 51.63318 | -2.34112 | 16102 ft | 358 kts | 276° |
| 2026-04-25 10:04 | 51.63591 | -2.38106 | 16612 ft | 360 kts | 275° |
| 2026-04-25 10:04 | 51.63864 | -2.42129 | 17103 ft | 362 kts | 275° |
| 2026-04-25 10:05 | 51.64135 | -2.46164 | 17610 ft | 364 kts | 275° |
| 2026-04-25 10:05 | 51.64405 | -2.50230 | 18097 ft | 366 kts | 275° |
| 2026-04-25 10:05 | 51.64674 | -2.54318 | 18587 ft | 368 kts | 275° |
| 2026-04-25 10:05 | 51.64944 | -2.58422 | 19016 ft | 370 kts | 275° |
| 2026-04-25 10:06 | 51.65215 | -2.62559 | 19423 ft | 372 kts | 275° |
| 2026-04-25 10:06 | 51.65486 | -2.66721 | 19840 ft | 375 kts | 275° |
| 2026-04-25 10:06 | 51.65757 | -2.70907 | 20264 ft | 377 kts | 275° |
| 2026-04-25 10:06 | 51.66029 | -2.75120 | 20701 ft | 379 kts | 274° |
| 2026-04-25 10:07 | 51.66303 | -2.79371 | 21122 ft | 382 kts | 274° |
| 2026-04-25 10:07 | 51.66572 | -2.83599 | 21544 ft | 384 kts | 274° |
| 2026-04-25 10:07 | 51.66844 | -2.87897 | 21988 ft | 387 kts | 274° |
| 2026-04-25 10:07 | 51.67117 | -2.92217 | 22433 ft | 389 kts | 274° |
| 2026-04-25 10:08 | 51.67390 | -2.96576 | 22880 ft | 392 kts | 274° |
| 2026-04-25 10:08 | 51.67663 | -3.00964 | 23313 ft | 394 kts | 274° |
| 2026-04-25 10:08 | 51.67936 | -3.05379 | 23755 ft | 397 kts | 274° |
| 2026-04-25 10:08 | 51.68208 | -3.09819 | 24158 ft | 399 kts | 274° |
| 2026-04-25 10:09 | 51.68481 | -3.14277 | 24590 ft | 400 kts | 274° |
| 2026-04-25 10:09 | 51.68753 | -3.18750 | 24989 ft | 402 kts | 274° |
| 2026-04-25 10:09 | 51.69024 | -3.23237 | 25376 ft | 404 kts | 274° |
| 2026-04-25 10:09 | 51.69295 | -3.27767 | 25770 ft | 406 kts | 274° |
| 2026-04-25 10:10 | 51.69565 | -3.32320 | 26026 ft | 410 kts | 274° |
| 2026-04-25 10:10 | 51.69833 | -3.36867 | 26123 ft | 408 kts | 274° |
| 2026-04-25 10:10 | 51.70101 | -3.41424 | 26209 ft | 408 kts | 274° |
| 2026-04-25 10:10 | 51.70368 | -3.45999 | 26215 ft | 409 kts | 274° |
| 2026-04-25 10:11 | 51.70597 | -3.50628 | 26219 ft | 420 kts | 270° |
| 2026-04-25 10:11 | 51.70466 | -3.55380 | 26216 ft | 430 kts | 262° |
| 2026-04-25 10:11 | 51.69883 | -3.60176 | 26214 ft | 441 kts | 254° |
| 2026-04-25 10:11 | 51.68855 | -3.64832 | 26212 ft | 451 kts | 246° |
| 2026-04-25 10:12 | 51.67602 | -3.69522 | 26215 ft | 460 kts | 247° |
| 2026-04-25 10:12 | 51.66350 | -3.74261 | 26682 ft | 457 kts | 247° |
| 2026-04-25 10:12 | 51.63956 | -3.83332 | 29046 ft | 422 kts | 247° |
| 2026-04-25 10:13 | 51.62810 | -3.87658 | 29582 ft | 421 kts | 247° |
| 2026-04-25 10:13 | 51.61647 | -3.92035 | 29817 ft | 425 kts | 246° |
| 2026-04-25 10:13 | 51.60479 | -3.96418 | 30178 ft | 427 kts | 246° |
| 2026-04-25 10:13 | 51.59318 | -4.00768 | 30467 ft | 429 kts | 246° |
| 2026-04-25 10:14 | 51.58136 | -4.05189 | 30765 ft | 431 kts | 246° |
| 2026-04-25 10:14 | 51.56944 | -4.09641 | 31075 ft | 432 kts | 246° |
| 2026-04-25 10:14 | 51.55750 | -4.14090 | 31369 ft | 434 kts | 246° |
| 2026-04-25 10:14 | 51.54548 | -4.18562 | 31665 ft | 436 kts | 246° |
| 2026-04-25 10:15 | 51.53748 | -4.21531 | 31862 ft | 438 kts | 246° |
| 2026-04-25 10:15 | 51.52536 | -4.26023 | 32139 ft | 440 kts | 246° |
| 2026-04-25 10:15 | 51.51314 | -4.30543 | 32430 ft | 441 kts | 246° |
| 2026-04-25 10:15 | 51.49685 | -4.36554 | 32747 ft | 444 kts | 246° |
| 2026-04-25 10:16 | 51.49058 | -4.38866 | 32864 ft | 445 kts | 246° |
| 2026-04-25 10:16 | 51.48099 | -4.42395 | 33063 ft | 445 kts | 246° |
| 2026-04-25 10:16 | 51.46874 | -4.46896 | 33159 ft | 448 kts | 246° |
| 2026-04-25 10:17 | 51.44360 | -4.56104 | 33203 ft | 451 kts | 246° |
| 2026-04-25 10:17 | 51.41837 | -4.65310 | 33201 ft | 451 kts | 246° |
| 2026-04-25 10:18 | 51.39305 | -4.74510 | 33203 ft | 451 kts | 246° |
| 2026-04-25 10:18 | 51.36763 | -4.83711 | 33201 ft | 450 kts | 246° |
| 2026-04-25 10:19 | 51.34240 | -4.92806 | 33200 ft | 450 kts | 246° |
| 2026-04-25 10:19 | 51.31632 | -5.01930 | 33201 ft | 450 kts | 242° |
| 2026-04-25 10:20 | 51.28297 | -5.10414 | 33198 ft | 450 kts | 236° |
| 2026-04-25 10:20 | 51.24799 | -5.18717 | 33200 ft | 450 kts | 236° |
| 2026-04-25 10:21 | 51.21305 | -5.27029 | 33201 ft | 450 kts | 236° |
| 2026-04-25 10:21 | 51.17811 | -5.35311 | 33197 ft | 450 kts | 236° |
| 2026-04-25 10:22 | 51.14307 | -5.43583 | 33197 ft | 450 kts | 236° |
| 2026-04-25 10:22 | 51.10796 | -5.51846 | 33196 ft | 450 kts | 236° |
| 2026-04-25 10:23 | 51.07283 | -5.60086 | 33197 ft | 450 kts | 236° |
| 2026-04-25 10:23 | 51.03782 | -5.68270 | 33196 ft | 450 kts | 236° |
| 2026-04-25 10:24 | 51.00254 | -5.76496 | 33195 ft | 450 kts | 236° |
| 2026-04-25 10:24 | 50.96727 | -5.84690 | 33194 ft | 450 kts | 236° |
| 2026-04-25 10:25 | 50.93193 | -5.92877 | 33191 ft | 450 kts | 236° |
| 2026-04-25 10:25 | 50.89653 | -6.01050 | 33193 ft | 450 kts | 236° |
| 2026-04-25 10:26 | 50.86114 | -6.09196 | 33193 ft | 450 kts | 236° |
| 2026-04-25 10:26 | 50.82559 | -6.17355 | 33194 ft | 450 kts | 236° |
| 2026-04-25 10:27 | 50.79000 | -6.25496 | 33191 ft | 450 kts | 235° |
| 2026-04-25 10:27 | 50.75437 | -6.33620 | 33195 ft | 450 kts | 235° |
| 2026-04-25 10:28 | 50.71886 | -6.41695 | 33194 ft | 449 kts | 235° |
| 2026-04-25 10:28 | 50.68306 | -6.49807 | 33194 ft | 449 kts | 235° |
| 2026-04-25 10:29 | 50.64726 | -6.57896 | 33195 ft | 449 kts | 235° |
| 2026-04-25 10:29 | 50.61147 | -6.65957 | 33193 ft | 449 kts | 235° |
| 2026-04-25 10:30 | 50.57555 | -6.74023 | 33199 ft | 449 kts | 234° |
| 2026-04-25 10:30 | 50.53984 | -6.82017 | 33198 ft | 449 kts | 234° |
| 2026-04-25 10:31 | 50.50391 | -6.90037 | 33193 ft | 448 kts | 234° |
| 2026-04-25 10:31 | 50.46796 | -6.98035 | 33193 ft | 448 kts | 234° |
| 2026-04-25 10:32 | 50.43200 | -7.06013 | 33196 ft | 448 kts | 234° |
| 2026-04-25 10:32 | 50.39590 | -7.13995 | 33201 ft | 447 kts | 234° |
| 2026-04-25 10:33 | 50.35981 | -7.21952 | 33208 ft | 447 kts | 234° |
| 2026-04-25 10:33 | 50.32373 | -7.29883 | 33204 ft | 447 kts | 234° |
| 2026-04-25 10:34 | 50.28766 | -7.37790 | 33202 ft | 446 kts | 234° |
| 2026-04-25 10:34 | 50.25174 | -7.45638 | 33205 ft | 446 kts | 234° |
| 2026-04-25 10:35 | 50.21552 | -7.53528 | 33207 ft | 445 kts | 234° |
| 2026-04-25 10:35 | 50.17933 | -7.61387 | 33210 ft | 445 kts | 233° |
| 2026-04-25 10:36 | 50.14333 | -7.69184 | 33209 ft | 444 kts | 233° |
| 2026-04-25 10:36 | 50.10715 | -7.76997 | 33208 ft | 444 kts | 233° |
| 2026-04-25 10:37 | 50.07101 | -7.84777 | 33206 ft | 443 kts | 233° |
| 2026-04-25 10:37 | 50.03484 | -7.92544 | 33204 ft | 443 kts | 233° |
| 2026-04-25 10:38 | 49.99295 | -7.99497 | 33207 ft | 441 kts | 218° |
| 2026-04-25 10:38 | 49.94079 | -8.04378 | 33208 ft | 441 kts | 206° |
| 2026-04-25 10:39 | 49.88525 | -8.08414 | 33207 ft | 441 kts | 206° |
| 2026-04-25 10:39 | 49.82980 | -8.12477 | 33207 ft | 440 kts | 206° |
| 2026-04-25 10:40 | 49.77444 | -8.16521 | 33213 ft | 439 kts | 206° |
| 2026-04-25 10:40 | 49.71908 | -8.20551 | 33212 ft | 438 kts | 206° |
| 2026-04-25 10:41 | 49.66387 | -8.24560 | 33216 ft | 437 kts | 206° |
| 2026-04-25 10:41 | 49.60919 | -8.28519 | 33215 ft | 436 kts | 205° |
| 2026-04-25 10:42 | 49.55421 | -8.32491 | 33215 ft | 435 kts | 205° |
| 2026-04-25 10:42 | 49.49932 | -8.36446 | 33215 ft | 434 kts | 205° |
| 2026-04-25 10:43 | 49.44468 | -8.40374 | 33216 ft | 433 kts | 205° |
| 2026-04-25 10:43 | 49.39007 | -8.44290 | 33218 ft | 432 kts | 205° |
| 2026-04-25 10:44 | 49.33603 | -8.48155 | 33215 ft | 431 kts | 205° |
| 2026-04-25 10:44 | 49.28170 | -8.52032 | 33215 ft | 430 kts | 205° |
| 2026-04-25 10:45 | 49.22743 | -8.55894 | 33219 ft | 429 kts | 205° |
| 2026-04-25 10:45 | 49.17639 | -8.59519 | 33218 ft | 428 kts | 205° |
| 2026-04-25 10:46 | 49.12244 | -8.63342 | 33218 ft | 427 kts | 204° |
| 2026-04-25 10:46 | 49.06842 | -8.67160 | 33217 ft | 426 kts | 204° |
| 2026-04-25 10:47 | 49.01464 | -8.70952 | 33217 ft | 425 kts | 204° |
| 2026-04-25 10:47 | 48.96091 | -8.74731 | 33217 ft | 425 kts | 204° |
| 2026-04-25 10:48 | 48.92214 | -8.77453 | 33221 ft | 424 kts | 204° |
| 2026-04-25 10:48 | 48.86825 | -8.81228 | 33218 ft | 423 kts | 204° |
| 2026-04-25 10:49 | 48.81481 | -8.84963 | 33225 ft | 422 kts | 203° |
| 2026-04-25 10:49 | 48.76143 | -8.88685 | 33220 ft | 421 kts | 203° |
| 2026-04-25 10:50 | 48.70813 | -8.92392 | 33225 ft | 420 kts | 203° |
| 2026-04-25 10:50 | 48.65526 | -8.96061 | 33223 ft | 419 kts | 203° |
| 2026-04-25 10:51 | 48.60055 | -8.99019 | 33224 ft | 417 kts | 192° |
| 2026-04-25 10:51 | 48.54306 | -9.00052 | 33217 ft | 417 kts | 181° |
| 2026-04-25 10:52 | 48.48507 | -9.00011 | 33223 ft | 416 kts | 181° |
| 2026-04-25 10:52 | 48.42760 | -9.00006 | 33211 ft | 415 kts | 181° |
| 2026-04-25 10:53 | 48.36988 | -9.00008 | 33224 ft | 415 kts | 181° |
| 2026-04-25 10:53 | 48.31210 | -9.00008 | 33226 ft | 414 kts | 181° |
| 2026-04-25 10:54 | 48.25443 | -9.00008 | 33224 ft | 413 kts | 181° |
| 2026-04-25 10:54 | 48.19692 | -9.00008 | 33223 ft | 413 kts | 181° |
| 2026-04-25 10:55 | 48.13948 | -9.00008 | 33230 ft | 412 kts | 180° |
| 2026-04-25 10:55 | 48.08252 | -9.00008 | 33230 ft | 411 kts | 180° |
| 2026-04-25 10:56 | 48.02540 | -9.00008 | 33234 ft | 410 kts | 180° |
| 2026-04-25 10:56 | 47.96830 | -9.00008 | 33229 ft | 409 kts | 180° |
| 2026-04-25 10:57 | 47.92086 | -9.00008 | 33219 ft | 409 kts | 180° |
| 2026-04-25 10:57 | 47.86400 | -9.00008 | 33230 ft | 408 kts | 180° |
| 2026-04-25 10:58 | 47.80713 | -9.00008 | 33235 ft | 408 kts | 180° |
| 2026-04-25 10:58 | 47.75050 | -9.00008 | 33219 ft | 407 kts | 180° |
| 2026-04-25 10:59 | 47.69376 | -9.00008 | 33232 ft | 407 kts | 180° |
| 2026-04-25 10:59 | 47.63754 | -9.00008 | 33231 ft | 406 kts | 180° |
| 2026-04-25 11:00 | 47.58105 | -9.00008 | 33222 ft | 405 kts | 180° |
| 2026-04-25 11:00 | 47.52460 | -9.00008 | 33234 ft | 405 kts | 180° |
| 2026-04-25 11:01 | 47.46822 | -9.00008 | 33231 ft | 404 kts | 180° |
| 2026-04-25 11:01 | 47.41199 | -9.00007 | 33232 ft | 404 kts | 180° |
| 2026-04-25 11:02 | 47.35581 | -9.00007 | 33239 ft | 403 kts | 180° |
| 2026-04-25 11:02 | 47.29982 | -9.00007 | 33236 ft | 402 kts | 179° |
| 2026-04-25 11:03 | 47.24376 | -9.00005 | 33241 ft | 402 kts | 179° |
| 2026-04-25 11:03 | 47.18813 | -9.00005 | 33230 ft | 401 kts | 179° |
| 2026-04-25 11:04 | 47.13209 | -9.00006 | 33238 ft | 403 kts | 179° |
| 2026-04-25 11:04 | 47.07626 | -9.00006 | 33231 ft | 403 kts | 179° |
| 2026-04-25 11:05 | 47.02009 | -9.00006 | 33230 ft | 404 kts | 179° |
| 2026-04-25 11:05 | 46.96355 | -9.00006 | 33251 ft | 406 kts | 179° |
| 2026-04-25 11:06 | 46.90688 | -9.00005 | 33245 ft | 407 kts | 179° |
| 2026-04-25 11:06 | 46.85040 | -9.00005 | 33249 ft | 408 kts | 179° |
| 2026-04-25 11:07 | 46.79348 | -9.00005 | 33241 ft | 407 kts | 179° |
| 2026-04-25 11:07 | 46.73687 | -9.00004 | 33242 ft | 407 kts | 179° |
| 2026-04-25 11:08 | 46.68056 | -9.00004 | 33235 ft | 408 kts | 179° |
| 2026-04-25 11:08 | 46.62400 | -9.00004 | 33218 ft | 408 kts | 179° |
| 2026-04-25 11:09 | 46.56728 | -9.00003 | 33215 ft | 409 kts | 180° |
| 2026-04-25 11:09 | 46.51049 | -9.00003 | 33244 ft | 411 kts | 180° |
| 2026-04-25 11:10 | 46.45314 | -9.00003 | 33247 ft | 412 kts | 180° |
| 2026-04-25 11:10 | 46.39556 | -9.00002 | 33253 ft | 414 kts | 180° |
| 2026-04-25 11:11 | 46.33852 | -9.00002 | 33232 ft | 411 kts | 180° |
| 2026-04-25 11:11 | 46.28107 | -9.00002 | 33231 ft | 412 kts | 180° |
| 2026-04-25 11:12 | 46.22363 | -9.00002 | 33231 ft | 413 kts | 180° |
| 2026-04-25 11:12 | 46.16608 | -9.00002 | 33234 ft | 413 kts | 180° |
| 2026-04-25 11:13 | 46.10864 | -9.00002 | 33226 ft | 413 kts | 180° |
| 2026-04-25 11:13 | 46.05135 | -9.00001 | 33225 ft | 414 kts | 180° |
| 2026-04-25 11:14 | 45.99375 | -9.00001 | 33220 ft | 414 kts | 180° |
| 2026-04-25 11:14 | 45.93595 | -9.00001 | 33225 ft | 415 kts | 180° |
| 2026-04-25 11:15 | 45.87809 | -9.00001 | 33216 ft | 416 kts | 180° |
| 2026-04-25 11:15 | 45.82028 | -9.00001 | 33223 ft | 417 kts | 180° |
| 2026-04-25 11:16 | 45.73305 | -9.00000 | 33224 ft | 419 kts | 180° |
| 2026-04-25 11:16 | 45.67462 | -9.00001 | 33231 ft | 420 kts | 180° |
| 2026-04-25 11:17 | 45.61643 | -9.00001 | 33231 ft | 421 kts | 180° |
| 2026-04-25 11:17 | 45.55774 | -9.00001 | 33233 ft | 421 kts | 180° |
| 2026-04-25 11:18 | 45.49903 | -9.00067 | 33225 ft | 422 kts | 185° |
| 2026-04-25 11:18 | 45.47021 | -9.00886 | 33229 ft | 425 kts | 197° |
| 2026-04-25 11:18 | 45.44322 | -9.02624 | 33234 ft | 429 kts | 208° |
| 2026-04-25 11:19 | 45.39741 | -9.08122 | 33231 ft | 436 kts | 220° |
| 2026-04-25 11:19 | 45.35361 | -9.14135 | 33239 ft | 436 kts | 219° |
| 2026-04-25 11:20 | 45.30938 | -9.20059 | 33240 ft | 436 kts | 219° |
| 2026-04-25 11:20 | 45.26514 | -9.25902 | 33242 ft | 436 kts | 219° |
| 2026-04-25 11:21 | 45.22056 | -9.31763 | 33243 ft | 436 kts | 219° |
| 2026-04-25 11:21 | 45.17593 | -9.37619 | 33242 ft | 436 kts | 219° |
| 2026-04-25 11:22 | 45.13884 | -9.42475 | 33236 ft | 436 kts | 219° |
| 2026-04-25 11:22 | 45.08691 | -9.49262 | 33239 ft | 436 kts | 219° |
| 2026-04-25 11:23 | 45.04222 | -9.55088 | 33232 ft | 436 kts | 219° |
| 2026-04-25 11:23 | 44.99756 | -9.60896 | 33233 ft | 437 kts | 219° |
| 2026-04-25 11:24 | 44.95301 | -9.66677 | 33237 ft | 437 kts | 219° |
| 2026-04-25 11:24 | 44.90821 | -9.72478 | 33232 ft | 437 kts | 219° |
| 2026-04-25 11:25 | 44.86333 | -9.78277 | 33236 ft | 437 kts | 220° |
| 2026-04-25 11:25 | 44.81845 | -9.84063 | 33231 ft | 437 kts | 220° |
| 2026-04-25 11:26 | 44.77345 | -9.89851 | 33235 ft | 437 kts | 220° |
| 2026-04-25 11:26 | 44.72864 | -9.95602 | 33229 ft | 438 kts | 220° |
| 2026-04-25 11:27 | 44.68359 | -10.01372 | 33233 ft | 438 kts | 220° |
| 2026-04-25 11:27 | 44.64603 | -10.06172 | 33233 ft | 438 kts | 220° |
| 2026-04-25 11:28 | 44.59346 | -10.12877 | 33232 ft | 438 kts | 220° |
| 2026-04-25 11:28 | 44.54821 | -10.18634 | 33224 ft | 439 kts | 220° |
| 2026-04-25 11:29 | 44.50260 | -10.24406 | 33236 ft | 447 kts | 224° |
| 2026-04-25 11:29 | 44.45613 | -10.30295 | 33242 ft | 451 kts | 224° |
| 2026-04-25 11:30 | 44.40988 | -10.36141 | 33236 ft | 449 kts | 224° |
| 2026-04-25 11:30 | 44.36351 | -10.41990 | 33239 ft | 449 kts | 224° |
| 2026-04-25 11:31 | 44.31711 | -10.47828 | 33218 ft | 447 kts | 224° |
| 2026-04-25 11:31 | 44.27105 | -10.53611 | 33219 ft | 447 kts | 224° |
| 2026-04-25 11:32 | 44.22486 | -10.59398 | 33225 ft | 446 kts | 224° |
| 2026-04-25 11:32 | 44.17868 | -10.65170 | 33231 ft | 446 kts | 224° |
| 2026-04-25 11:33 | 44.13249 | -10.70933 | 33234 ft | 445 kts | 223° |
| 2026-04-25 11:33 | 44.08621 | -10.76693 | 33211 ft | 445 kts | 223° |
| 2026-04-25 11:34 | 44.03994 | -10.82441 | 33207 ft | 445 kts | 223° |
| 2026-04-25 11:34 | 44.01734 | -10.85242 | 33229 ft | 433 kts | 223° |
| 2026-04-25 11:34 | 43.99528 | -10.87971 | 33229 ft | 415 kts | 223° |
| 2026-04-25 11:35 | 43.97407 | -10.90594 | 33228 ft | 404 kts | 223° |
| 2026-04-25 11:35 | 43.95326 | -10.93168 | 33225 ft | 394 kts | 223° |
| 2026-04-25 11:35 | 43.91210 | -10.98255 | 33229 ft | 403 kts | 223° |
| 2026-04-25 11:36 | 43.87010 | -11.03432 | 33228 ft | 401 kts | 223° |
| 2026-04-25 11:36 | 43.82845 | -11.08557 | 33230 ft | 400 kts | 223° |
| 2026-04-25 11:37 | 43.78161 | -11.12598 | 33226 ft | 406 kts | 199° |
| 2026-04-25 11:37 | 43.75371 | -11.13304 | 33229 ft | 411 kts | 185° |
| 2026-04-25 11:37 | 43.72503 | -11.13012 | 33228 ft | 417 kts | 171° |
| 2026-04-25 11:38 | 43.69740 | -11.11728 | 33229 ft | 423 kts | 157° |
| 2026-04-25 11:38 | 43.67150 | -11.09774 | 33228 ft | 426 kts | 153° |
| 2026-04-25 11:38 | 43.62090 | -11.05481 | 33229 ft | 427 kts | 151° |
| 2026-04-25 11:39 | 43.57091 | -11.01068 | 33223 ft | 429 kts | 145° |
| 2026-04-25 11:39 | 43.54925 | -10.98187 | 33225 ft | 436 kts | 131° |
| 2026-04-25 11:39 | 43.53301 | -10.94638 | 33229 ft | 442 kts | 117° |
| 2026-04-25 11:40 | 43.51422 | -10.86575 | 33224 ft | 446 kts | 105° |
| 2026-04-25 11:40 | 43.50053 | -10.78214 | 33221 ft | 447 kts | 104° |
| 2026-04-25 11:41 | 43.48676 | -10.69852 | 33222 ft | 448 kts | 105° |
| 2026-04-25 11:41 | 43.47267 | -10.61483 | 33221 ft | 448 kts | 105° |
| 2026-04-25 11:42 | 43.45889 | -10.53102 | 33216 ft | 449 kts | 99° |
| 2026-04-25 11:42 | 43.45727 | -10.48796 | 33220 ft | 452 kts | 86° |
| 2026-04-25 11:42 | 43.46271 | -10.44595 | 33223 ft | 453 kts | 72° |
| 2026-04-25 11:43 | 43.47514 | -10.40622 | 33222 ft | 452 kts | 58° |
| 2026-04-25 11:43 | 43.49384 | -10.37155 | 33222 ft | 449 kts | 44° |
| 2026-04-25 11:43 | 43.51764 | -10.34406 | 33220 ft | 445 kts | 30° |
| 2026-04-25 11:43 | 43.54514 | -10.32517 | 33223 ft | 440 kts | 15° |
| 2026-04-25 11:44 | 43.60442 | -10.31574 | 33223 ft | 428 kts | 349° |
| 2026-04-25 11:44 | 43.63329 | -10.32449 | 33226 ft | 423 kts | 337° |
| 2026-04-25 11:44 | 43.65976 | -10.34138 | 33225 ft | 417 kts | 324° |
| 2026-04-25 11:45 | 43.68278 | -10.36546 | 33224 ft | 413 kts | 313° |
| 2026-04-25 11:45 | 43.69562 | -10.38474 | 33224 ft | 410 kts | 304° |
| 2026-04-25 11:45 | 43.71086 | -10.41778 | 33223 ft | 406 kts | 293° |
| 2026-04-25 11:45 | 43.72065 | -10.45411 | 33224 ft | 403 kts | 282° |
| 2026-04-25 11:46 | 43.73386 | -10.52937 | 33226 ft | 403 kts | 281° |
| 2026-04-25 11:46 | 43.74652 | -10.60488 | 33226 ft | 403 kts | 281° |
| 2026-04-25 11:47 | 43.75885 | -10.68064 | 33228 ft | 404 kts | 280° |
| 2026-04-25 11:47 | 43.77109 | -10.75599 | 33229 ft | 404 kts | 280° |
| 2026-04-25 11:48 | 43.78350 | -10.83206 | 33228 ft | 405 kts | 280° |
| 2026-04-25 11:48 | 43.79599 | -10.90818 | 33230 ft | 405 kts | 280° |
| 2026-04-25 11:49 | 43.80853 | -10.98433 | 33233 ft | 406 kts | 280° |
| 2026-04-25 11:49 | 43.82107 | -11.06021 | 33232 ft | 407 kts | 280° |
| 2026-04-25 11:50 | 43.82913 | -11.13749 | 33230 ft | 404 kts | 265° |
| 2026-04-25 11:50 | 43.82523 | -11.17590 | 33226 ft | 402 kts | 254° |
| 2026-04-25 11:50 | 43.81567 | -11.21221 | 33228 ft | 401 kts | 243° |
| 2026-04-25 11:51 | 43.80091 | -11.24489 | 33229 ft | 401 kts | 231° |
| 2026-04-25 11:51 | 43.78150 | -11.27271 | 33229 ft | 402 kts | 220° |
| 2026-04-25 11:51 | 43.75836 | -11.29432 | 33231 ft | 404 kts | 208° |
| 2026-04-25 11:51 | 43.73258 | -11.30877 | 33230 ft | 406 kts | 197° |
| 2026-04-25 11:52 | 43.70470 | -11.31559 | 33231 ft | 409 kts | 185° |
| 2026-04-25 11:52 | 43.67608 | -11.31410 | 33231 ft | 414 kts | 173° |
| 2026-04-25 11:52 | 43.64811 | -11.30411 | 33231 ft | 419 kts | 161° |
| 2026-04-25 11:52 | 43.62203 | -11.28580 | 33233 ft | 424 kts | 149° |
| 2026-04-25 11:53 | 43.59908 | -11.25960 | 33234 ft | 430 kts | 136° |
| 2026-04-25 11:53 | 43.58077 | -11.22681 | 33229 ft | 435 kts | 123° |
| 2026-04-25 11:53 | 43.56808 | -11.18870 | 33233 ft | 441 kts | 110° |
| 2026-04-25 11:53 | 43.56079 | -11.14733 | 33230 ft | 444 kts | 104° |
| 2026-04-25 11:54 | 43.54820 | -11.06462 | 33226 ft | 444 kts | 104° |
| 2026-04-25 11:55 | 43.52738 | -10.94002 | 33223 ft | 445 kts | 105° |
| 2026-04-25 11:55 | 43.51317 | -10.85717 | 33226 ft | 445 kts | 105° |
| 2026-04-25 11:56 | 43.49892 | -10.77379 | 33225 ft | 446 kts | 105° |
| 2026-04-25 11:56 | 43.48481 | -10.69085 | 33224 ft | 447 kts | 105° |
| 2026-04-25 11:57 | 43.47068 | -10.60732 | 33223 ft | 447 kts | 105° |
| 2026-04-25 11:57 | 43.45739 | -10.52342 | 33218 ft | 449 kts | 97° |
| 2026-04-25 11:57 | 43.45706 | -10.48028 | 33221 ft | 452 kts | 84° |
| 2026-04-25 11:58 | 43.46379 | -10.43857 | 33224 ft | 453 kts | 70° |
| 2026-04-25 11:58 | 43.47744 | -10.39964 | 33219 ft | 451 kts | 55° |
| 2026-04-25 11:58 | 43.49712 | -10.36628 | 33222 ft | 448 kts | 41° |
| 2026-04-25 11:58 | 43.52175 | -10.34027 | 33221 ft | 444 kts | 27° |
| 2026-04-25 11:59 | 43.54981 | -10.32307 | 33225 ft | 439 kts | 13° |
| 2026-04-25 11:59 | 43.57968 | -10.31518 | 33225 ft | 434 kts | 0° |
| 2026-04-25 11:59 | 43.60962 | -10.31657 | 33226 ft | 428 kts | 347° |
| 2026-04-25 12:00 | 43.66420 | -10.34509 | 33228 ft | 417 kts | 322° |
| 2026-04-25 12:00 | 43.68621 | -10.36999 | 33227 ft | 413 kts | 310° |
| 2026-04-25 12:00 | 43.71649 | -10.43574 | 33229 ft | 405 kts | 287° |
| 2026-04-25 12:01 | 43.72402 | -10.47323 | 33231 ft | 403 kts | 282° |
| 2026-04-25 12:01 | 43.73717 | -10.54869 | 33228 ft | 404 kts | 281° |
| 2026-04-25 12:02 | 43.75591 | -10.66255 | 33230 ft | 405 kts | 280° |
| 2026-04-25 12:02 | 43.76817 | -10.73805 | 33231 ft | 405 kts | 280° |
| 2026-04-25 12:03 | 43.78058 | -10.81418 | 33234 ft | 405 kts | 280° |
| 2026-04-25 12:03 | 43.79308 | -10.89051 | 33233 ft | 406 kts | 280° |
| 2026-04-25 12:04 | 43.80565 | -10.96689 | 33233 ft | 407 kts | 280° |
| 2026-04-25 12:04 | 43.81828 | -11.04335 | 33231 ft | 408 kts | 280° |
| 2026-04-25 12:05 | 43.82899 | -11.11997 | 33232 ft | 406 kts | 270° |
| 2026-04-25 12:05 | 43.82767 | -11.15889 | 33230 ft | 404 kts | 259° |
| 2026-04-25 12:05 | 43.82053 | -11.19638 | 33232 ft | 402 kts | 247° |
| 2026-04-25 12:06 | 43.80789 | -11.23095 | 33231 ft | 402 kts | 236° |
| 2026-04-25 12:06 | 43.79034 | -11.26105 | 33230 ft | 402 kts | 224° |
| 2026-04-25 12:06 | 43.76859 | -11.28545 | 33231 ft | 403 kts | 213° |
| 2026-04-25 12:06 | 43.74357 | -11.30306 | 33231 ft | 406 kts | 201° |
| 2026-04-25 12:07 | 43.71663 | -11.31300 | 33235 ft | 408 kts | 190° |
| 2026-04-25 12:07 | 43.68823 | -11.31494 | 33229 ft | 412 kts | 178° |
| 2026-04-25 12:07 | 43.65979 | -11.30838 | 33231 ft | 417 kts | 166° |
| 2026-04-25 12:07 | 43.63268 | -11.29328 | 33232 ft | 422 kts | 154° |
| 2026-04-25 12:08 | 43.60841 | -11.27018 | 33232 ft | 427 kts | 141° |
| 2026-04-25 12:08 | 43.58808 | -11.23969 | 33230 ft | 433 kts | 128° |
| 2026-04-25 12:08 | 43.57314 | -11.20358 | 33231 ft | 438 kts | 115° |
| 2026-04-25 12:08 | 43.56437 | -11.16323 | 33230 ft | 443 kts | 101° |
| 2026-04-25 12:09 | 43.56246 | -11.12124 | 33233 ft | 447 kts | 88° |
| 2026-04-25 12:09 | 43.56767 | -11.07891 | 33228 ft | 450 kts | 73° |
| 2026-04-25 12:09 | 43.57994 | -11.03906 | 33229 ft | 451 kts | 59° |
| 2026-04-25 12:09 | 43.59856 | -11.00426 | 33230 ft | 451 kts | 45° |
| 2026-04-25 12:10 | 43.62247 | -10.97640 | 33229 ft | 450 kts | 31° |
| 2026-04-25 12:10 | 43.65027 | -10.95706 | 33231 ft | 446 kts | 17° |
| 2026-04-25 12:10 | 43.67996 | -10.94728 | 33227 ft | 442 kts | 3° |
| 2026-04-25 12:10 | 43.71061 | -10.94709 | 33231 ft | 437 kts | 349° |
| 2026-04-25 12:11 | 43.74002 | -10.95633 | 33234 ft | 431 kts | 336° |
| 2026-04-25 12:11 | 43.76680 | -10.97413 | 33231 ft | 426 kts | 323° |
| 2026-04-25 12:11 | 43.78989 | -10.99947 | 33233 ft | 420 kts | 311° |
| 2026-04-25 12:11 | 43.80792 | -11.03022 | 33232 ft | 415 kts | 298° |
| 2026-04-25 12:12 | 43.82083 | -11.06573 | 33233 ft | 411 kts | 287° |
| 2026-04-25 12:12 | 43.82621 | -11.09091 | 33232 ft | 408 kts | 279° |
| 2026-04-25 12:12 | 43.82796 | -11.14318 | 33229 ft | 406 kts | 260° |
| 2026-04-25 12:12 | 43.82095 | -11.18037 | 33230 ft | 405 kts | 246° |
| 2026-04-25 12:13 | 43.80714 | -11.21423 | 33235 ft | 404 kts | 232° |
| 2026-04-25 12:13 | 43.78757 | -11.24188 | 33232 ft | 404 kts | 218° |
| 2026-04-25 12:13 | 43.76334 | -11.26176 | 33232 ft | 407 kts | 204° |
| 2026-04-25 12:13 | 43.73599 | -11.27248 | 33232 ft | 411 kts | 189° |
| 2026-04-25 12:14 | 43.70766 | -11.27331 | 33232 ft | 415 kts | 175° |
| 2026-04-25 12:14 | 43.67938 | -11.26413 | 33232 ft | 421 kts | 161° |
| 2026-04-25 12:14 | 43.65323 | -11.24527 | 33231 ft | 427 kts | 147° |
| 2026-04-25 12:14 | 43.63089 | -11.21778 | 33234 ft | 433 kts | 133° |
| 2026-04-25 12:15 | 43.61378 | -11.18324 | 33228 ft | 439 kts | 120° |
| 2026-04-25 12:15 | 43.60144 | -11.14699 | 33215 ft | 442 kts | 116° |
| 2026-04-25 12:15 | 43.58310 | -11.08616 | 33230 ft | 454 kts | 115° |
| 2026-04-25 12:16 | 43.55902 | -11.00459 | 33230 ft | 471 kts | 114° |
| 2026-04-25 12:16 | 43.52475 | -10.92757 | 33228 ft | 478 kts | 136° |
| 2026-04-25 12:17 | 43.49983 | -10.89716 | 33226 ft | 477 kts | 147° |
| 2026-04-25 12:17 | 43.47121 | -10.87432 | 33227 ft | 472 kts | 159° |
| 2026-04-25 12:17 | 43.40979 | -10.84315 | 33226 ft | 470 kts | 163° |
| 2026-04-25 12:18 | 43.34845 | -10.81135 | 33218 ft | 472 kts | 161° |
| 2026-04-25 12:18 | 43.28760 | -10.77706 | 33222 ft | 473 kts | 160° |
| 2026-04-25 12:19 | 43.19631 | -10.72471 | 33219 ft | 474 kts | 160° |
| 2026-04-25 12:20 | 43.13576 | -10.69011 | 33219 ft | 475 kts | 160° |
| 2026-04-25 12:20 | 43.07469 | -10.65531 | 33214 ft | 475 kts | 160° |
| 2026-04-25 12:21 | 43.01362 | -10.62059 | 33212 ft | 475 kts | 160° |
| 2026-04-25 12:21 | 42.95286 | -10.58612 | 33210 ft | 476 kts | 160° |
| 2026-04-25 12:22 | 42.89170 | -10.55150 | 33208 ft | 476 kts | 160° |
| 2026-04-25 12:22 | 42.83042 | -10.51688 | 33210 ft | 477 kts | 160° |
| 2026-04-25 12:23 | 42.76895 | -10.48223 | 33211 ft | 477 kts | 160° |
| 2026-04-25 12:23 | 42.70789 | -10.44789 | 33202 ft | 477 kts | 160° |
| 2026-04-25 12:24 | 42.64639 | -10.41337 | 33203 ft | 478 kts | 160° |
| 2026-04-25 12:24 | 42.58480 | -10.37887 | 33199 ft | 478 kts | 160° |
| 2026-04-25 12:25 | 42.52316 | -10.34442 | 33193 ft | 479 kts | 160° |
| 2026-04-25 12:25 | 42.46143 | -10.30999 | 33193 ft | 480 kts | 160° |
| 2026-04-25 12:26 | 42.39969 | -10.27563 | 33190 ft | 480 kts | 160° |
| 2026-04-25 12:26 | 42.33807 | -10.24141 | 33193 ft | 481 kts | 160° |
| 2026-04-25 12:27 | 42.27596 | -10.20698 | 33185 ft | 481 kts | 160° |
| 2026-04-25 12:27 | 42.21394 | -10.17268 | 33185 ft | 482 kts | 160° |
| 2026-04-25 12:28 | 42.15214 | -10.13858 | 33178 ft | 482 kts | 160° |
| 2026-04-25 12:28 | 42.08997 | -10.10435 | 33179 ft | 483 kts | 160° |
| 2026-04-25 12:29 | 42.02643 | -10.07579 | 33174 ft | 479 kts | 170° |
| 2026-04-25 12:29 | 41.96084 | -10.06665 | 33178 ft | 475 kts | 182° |
| 2026-04-25 12:30 | 41.89451 | -10.06610 | 33174 ft | 476 kts | 182° |
| 2026-04-25 12:30 | 41.82814 | -10.06520 | 33174 ft | 476 kts | 182° |
| 2026-04-25 12:31 | 41.76226 | -10.06423 | 33172 ft | 476 kts | 182° |
| 2026-04-25 12:31 | 41.69584 | -10.06327 | 33175 ft | 476 kts | 182° |
| 2026-04-25 12:32 | 41.62952 | -10.06231 | 33170 ft | 477 kts | 182° |
| 2026-04-25 12:32 | 41.56303 | -10.06136 | 33172 ft | 477 kts | 182° |
| 2026-04-25 12:33 | 41.50784 | -10.06056 | 33168 ft | 477 kts | 182° |
| 2026-04-25 12:33 | 41.43053 | -10.05946 | 33170 ft | 477 kts | 182° |
| 2026-04-25 12:34 | 41.37520 | -10.05867 | 33166 ft | 478 kts | 182° |
| 2026-04-25 12:34 | 41.30864 | -10.05772 | 33162 ft | 478 kts | 182° |
| 2026-04-25 12:35 | 41.24205 | -10.05677 | 33161 ft | 478 kts | 182° |
| 2026-04-25 12:35 | 41.17550 | -10.05582 | 33160 ft | 478 kts | 182° |
| 2026-04-25 12:36 | 41.10937 | -10.05489 | 33158 ft | 478 kts | 181° |
| 2026-04-25 12:36 | 41.04274 | -10.05396 | 33159 ft | 479 kts | 181° |
| 2026-04-25 12:37 | 40.97613 | -10.05301 | 33157 ft | 479 kts | 181° |
| 2026-04-25 12:37 | 40.90928 | -10.05206 | 33153 ft | 479 kts | 181° |
| 2026-04-25 12:38 | 40.84253 | -10.05113 | 33157 ft | 480 kts | 181° |
| 2026-04-25 12:38 | 40.77572 | -10.05019 | 33152 ft | 480 kts | 181° |
| 2026-04-25 12:39 | 40.70878 | -10.04926 | 33150 ft | 481 kts | 181° |
| 2026-04-25 12:39 | 40.64223 | -10.04833 | 33155 ft | 481 kts | 181° |
| 2026-04-25 12:40 | 40.57526 | -10.04739 | 33155 ft | 481 kts | 181° |
| 2026-04-25 12:40 | 40.50827 | -10.04646 | 33149 ft | 481 kts | 181° |
| 2026-04-25 12:41 | 40.44112 | -10.04553 | 33151 ft | 482 kts | 181° |
| 2026-04-25 12:41 | 40.37400 | -10.04460 | 33149 ft | 482 kts | 181° |
| 2026-04-25 12:42 | 40.30684 | -10.04366 | 33146 ft | 482 kts | 181° |
| 2026-04-25 12:42 | 40.24007 | -10.04274 | 33144 ft | 483 kts | 181° |
| 2026-04-25 12:43 | 40.17288 | -10.04182 | 33147 ft | 483 kts | 181° |
| 2026-04-25 12:43 | 40.07182 | -10.04043 | 33140 ft | 484 kts | 181° |
| 2026-04-25 12:44 | 40.00434 | -10.03950 | 33147 ft | 484 kts | 181° |
| 2026-04-25 12:45 | 39.90314 | -10.03812 | 33144 ft | 484 kts | 181° |
| 2026-04-25 12:45 | 39.80243 | -10.03674 | 33142 ft | 484 kts | 181° |
| 2026-04-25 12:46 | 39.73493 | -10.03583 | 33139 ft | 485 kts | 181° |
| 2026-04-25 12:46 | 39.66738 | -10.03491 | 33142 ft | 485 kts | 181° |
| 2026-04-25 12:47 | 39.59979 | -10.03399 | 33140 ft | 485 kts | 181° |
| 2026-04-25 12:47 | 39.53257 | -10.03308 | 33136 ft | 485 kts | 181° |
| 2026-04-25 12:48 | 39.46461 | -10.03216 | 33133 ft | 485 kts | 181° |
| 2026-04-25 12:48 | 39.39745 | -10.03126 | 33133 ft | 485 kts | 181° |
| 2026-04-25 12:49 | 39.32982 | -10.03035 | 33136 ft | 485 kts | 181° |
| 2026-04-25 12:49 | 39.26220 | -10.02944 | 33134 ft | 485 kts | 181° |
| 2026-04-25 12:50 | 39.19456 | -10.02854 | 33131 ft | 486 kts | 181° |
| 2026-04-25 12:50 | 39.12682 | -10.02763 | 33129 ft | 486 kts | 181° |
| 2026-04-25 12:51 | 39.05918 | -10.02672 | 33129 ft | 486 kts | 181° |
| 2026-04-25 12:51 | 38.99143 | -10.02582 | 33126 ft | 486 kts | 181° |
| 2026-04-25 12:52 | 38.92415 | -10.02492 | 33132 ft | 486 kts | 181° |
| 2026-04-25 12:52 | 38.85644 | -10.02402 | 33130 ft | 486 kts | 181° |
| 2026-04-25 12:53 | 38.78881 | -10.02312 | 33131 ft | 486 kts | 181° |
| 2026-04-25 12:53 | 38.72098 | -10.02223 | 33128 ft | 486 kts | 181° |
| 2026-04-25 12:54 | 38.65312 | -10.02133 | 33127 ft | 486 kts | 181° |
| 2026-04-25 12:54 | 38.58581 | -10.02045 | 33125 ft | 486 kts | 181° |
| 2026-04-25 12:55 | 38.52949 | -10.01970 | 33128 ft | 486 kts | 181° |
| 2026-04-25 12:55 | 38.45044 | -10.01867 | 33127 ft | 486 kts | 181° |
| 2026-04-25 12:56 | 38.38279 | -10.01778 | 33121 ft | 486 kts | 181° |
| 2026-04-25 12:56 | 38.31506 | -10.01690 | 33118 ft | 486 kts | 181° |
| 2026-04-25 12:57 | 38.24733 | -10.01601 | 33116 ft | 487 kts | 181° |
| 2026-04-25 12:57 | 38.17951 | -10.01513 | 33122 ft | 487 kts | 181° |
| 2026-04-25 12:58 | 38.11166 | -10.01424 | 33124 ft | 487 kts | 181° |
| 2026-04-25 12:58 | 38.04427 | -10.01336 | 33122 ft | 487 kts | 181° |
| 2026-04-25 12:59 | 37.97634 | -10.01248 | 33119 ft | 488 kts | 181° |
| 2026-04-25 12:59 | 37.90832 | -10.01160 | 33118 ft | 488 kts | 181° |
| 2026-04-25 13:00 | 37.86279 | -10.01101 | 33119 ft | 488 kts | 181° |
| 2026-04-25 13:00 | 37.77235 | -10.00985 | 33123 ft | 488 kts | 181° |
| 2026-04-25 13:01 | 37.70473 | -10.00897 | 33119 ft | 489 kts | 181° |
| 2026-04-25 13:01 | 37.63641 | -10.00810 | 33117 ft | 489 kts | 181° |
| 2026-04-25 13:02 | 37.56826 | -10.00722 | 33120 ft | 489 kts | 181° |
| 2026-04-25 13:02 | 37.50062 | -10.00636 | 33114 ft | 489 kts | 181° |
| 2026-04-25 13:03 | 37.43242 | -10.00549 | 33109 ft | 489 kts | 181° |
| 2026-04-25 13:03 | 37.36420 | -10.00462 | 33112 ft | 490 kts | 181° |
| 2026-04-25 13:04 | 37.29594 | -10.00375 | 33112 ft | 490 kts | 181° |
| 2026-04-25 13:04 | 37.22804 | -10.00289 | 33112 ft | 490 kts | 181° |
| 2026-04-25 13:05 | 37.15985 | -10.00202 | 33109 ft | 490 kts | 181° |
| 2026-04-25 13:05 | 37.09171 | -10.00033 | 33101 ft | 491 kts | 175° |
| 2026-04-25 13:06 | 37.05854 | -9.99214 | 33115 ft | 478 kts | 163° |
| 2026-04-25 13:06 | 37.02849 | -9.97636 | 33107 ft | 459 kts | 151° |
| 2026-04-25 13:06 | 37.00261 | -9.95434 | 33112 ft | 441 kts | 140° |
| 2026-04-25 13:06 | 36.98132 | -9.92795 | 33117 ft | 423 kts | 129° |
| 2026-04-25 13:07 | 36.95168 | -9.86527 | 33116 ft | 426 kts | 112° |
| 2026-04-25 13:07 | 36.93042 | -9.79571 | 33107 ft | 428 kts | 98° |
| 2026-04-25 13:08 | 36.91140 | -9.72447 | 33098 ft | 441 kts | 115° |
| 2026-04-25 13:08 | 36.90140 | -9.68880 | 33103 ft | 430 kts | 99° |
| 2026-04-25 13:08 | 36.89918 | -9.65231 | 33111 ft | 416 kts | 83° |
| 2026-04-25 13:09 | 36.90493 | -9.61731 | 33116 ft | 411 kts | 66° |
| 2026-04-25 13:09 | 36.91826 | -9.58588 | 33091 ft | 411 kts | 49° |
| 2026-04-25 13:09 | 36.93795 | -9.56041 | 33091 ft | 404 kts | 33° |
| 2026-04-25 13:09 | 36.96199 | -9.54321 | 33097 ft | 396 kts | 17° |
| 2026-04-25 13:10 | 36.98848 | -9.53547 | 33097 ft | 390 kts | 1° |
| 2026-04-25 13:10 | 37.01541 | -9.53774 | 33100 ft | 386 kts | 344° |
| 2026-04-25 13:10 | 37.04033 | -9.54972 | 33101 ft | 384 kts | 328° |
| 2026-04-25 13:10 | 37.06114 | -9.57021 | 33099 ft | 383 kts | 312° |
| 2026-04-25 13:11 | 37.07626 | -9.59774 | 33102 ft | 385 kts | 295° |
| 2026-04-25 13:11 | 37.08414 | -9.62928 | 33115 ft | 388 kts | 279° |
| 2026-04-25 13:11 | 37.08432 | -9.66332 | 33102 ft | 394 kts | 263° |
| 2026-04-25 13:11 | 37.07756 | -9.69672 | 33116 ft | 397 kts | 255° |
| 2026-04-25 13:12 | 37.06072 | -9.76264 | 33101 ft | 397 kts | 255° |
| 2026-04-25 13:12 | 37.04935 | -9.80662 | 33116 ft | 397 kts | 255° |
| 2026-04-25 13:13 | 37.02975 | -9.88310 | 33113 ft | 397 kts | 255° |
| 2026-04-25 13:13 | 37.01296 | -9.94885 | 33108 ft | 397 kts | 255° |
| 2026-04-25 13:14 | 36.99597 | -10.01456 | 33115 ft | 397 kts | 251° |
| 2026-04-25 13:14 | 36.98268 | -10.04509 | 33120 ft | 403 kts | 235° |
| 2026-04-25 13:14 | 36.96291 | -10.07022 | 33108 ft | 408 kts | 219° |
| 2026-04-25 13:15 | 36.93818 | -10.08789 | 33106 ft | 413 kts | 203° |
| 2026-04-25 13:15 | 36.91055 | -10.09672 | 33106 ft | 418 kts | 188° |
| 2026-04-25 13:15 | 36.88128 | -10.09615 | 33121 ft | 422 kts | 172° |
| 2026-04-25 13:15 | 36.85266 | -10.08712 | 33113 ft | 424 kts | 163° |
| 2026-04-25 13:16 | 36.79814 | -10.05907 | 33113 ft | 426 kts | 147° |
| 2026-04-25 13:16 | 36.77563 | -10.03511 | 33102 ft | 427 kts | 131° |
| 2026-04-25 13:16 | 36.75779 | -10.00538 | 33112 ft | 428 kts | 121° |
| 2026-04-25 13:17 | 36.73012 | -9.93970 | 33107 ft | 427 kts | 114° |
| 2026-04-25 13:17 | 36.70536 | -9.87273 | 33113 ft | 428 kts | 114° |
| 2026-04-25 13:18 | 36.68035 | -9.80537 | 33114 ft | 428 kts | 114° |
| 2026-04-25 13:18 | 36.65516 | -9.73791 | 33097 ft | 429 kts | 111° |
| 2026-04-25 13:19 | 36.64673 | -9.70249 | 33098 ft | 426 kts | 96° |
| 2026-04-25 13:19 | 36.64593 | -9.66579 | 33093 ft | 423 kts | 80° |
| 2026-04-25 13:19 | 36.65273 | -9.63051 | 33102 ft | 418 kts | 65° |
| 2026-04-25 13:19 | 36.66107 | -9.60909 | 33106 ft | 414 kts | 55° |
| 2026-04-25 13:20 | 36.68580 | -9.57304 | 33087 ft | 406 kts | 35° |
| 2026-04-25 13:20 | 36.70938 | -9.55424 | 33088 ft | 400 kts | 21° |
| 2026-04-25 13:20 | 36.73519 | -9.54345 | 33090 ft | 395 kts | 7° |
| 2026-04-25 13:20 | 36.76233 | -9.54071 | 33092 ft | 391 kts | 354° |
| 2026-04-25 13:21 | 36.78897 | -9.54610 | 33104 ft | 387 kts | 341° |
| 2026-04-25 13:21 | 36.81367 | -9.55916 | 33094 ft | 386 kts | 328° |
| 2026-04-25 13:21 | 36.83517 | -9.57914 | 33090 ft | 385 kts | 315° |
| 2026-04-25 13:21 | 36.85217 | -9.60476 | 33089 ft | 385 kts | 302° |
| 2026-04-25 13:22 | 36.87586 | -9.66509 | 33093 ft | 387 kts | 295° |
| 2026-04-25 13:23 | 36.90972 | -9.75673 | 33112 ft | 387 kts | 295° |
| 2026-04-25 13:23 | 36.93236 | -9.81794 | 33114 ft | 387 kts | 295° |
| 2026-04-25 13:24 | 36.95502 | -9.87911 | 33108 ft | 388 kts | 295° |
| 2026-04-25 13:24 | 36.97759 | -9.93995 | 33111 ft | 388 kts | 295° |
| 2026-04-25 13:25 | 37.00032 | -10.00116 | 33115 ft | 388 kts | 294° |
| 2026-04-25 13:25 | 37.00847 | -10.03343 | 33111 ft | 390 kts | 281° |
| 2026-04-25 13:25 | 37.01029 | -10.06737 | 33108 ft | 393 kts | 268° |
| 2026-04-25 13:25 | 37.00545 | -10.10107 | 33112 ft | 396 kts | 254° |
| 2026-04-25 13:26 | 36.99406 | -10.13259 | 33122 ft | 400 kts | 240° |
| 2026-04-25 13:26 | 36.97664 | -10.15986 | 33112 ft | 405 kts | 226° |
| 2026-04-25 13:26 | 36.95410 | -10.18109 | 33103 ft | 409 kts | 211° |
| 2026-04-25 13:26 | 36.92765 | -10.19473 | 33117 ft | 414 kts | 196° |
| 2026-04-25 13:27 | 36.89907 | -10.19956 | 33117 ft | 418 kts | 181° |
| 2026-04-25 13:27 | 36.87008 | -10.19501 | 33110 ft | 422 kts | 166° |
| 2026-04-25 13:27 | 36.84289 | -10.18115 | 33119 ft | 425 kts | 150° |
| 2026-04-25 13:27 | 36.81960 | -10.15908 | 33116 ft | 426 kts | 134° |
| 2026-04-25 13:28 | 36.80145 | -10.12988 | 33107 ft | 427 kts | 118° |
| 2026-04-25 13:28 | 36.77599 | -10.06168 | 33115 ft | 435 kts | 114° |
| 2026-04-25 13:29 | 36.75087 | -9.99331 | 33117 ft | 432 kts | 114° |
| 2026-04-25 13:29 | 36.72539 | -9.92533 | 33113 ft | 434 kts | 114° |
| 2026-04-25 13:30 | 36.71259 | -9.85257 | 33112 ft | 438 kts | 84° |
| 2026-04-25 13:30 | 36.71635 | -9.81460 | 33112 ft | 445 kts | 78° |
| 2026-04-25 13:31 | 36.73160 | -9.69664 | 33098 ft | 473 kts | 78° |
| 2026-04-25 13:31 | 36.74215 | -9.61473 | 33108 ft | 487 kts | 78° |
| 2026-04-25 13:32 | 36.75279 | -9.53137 | 33104 ft | 485 kts | 78° |
| 2026-04-25 13:32 | 36.76326 | -9.44820 | 33091 ft | 486 kts | 78° |
| 2026-04-25 13:33 | 36.77362 | -9.36489 | 33093 ft | 485 kts | 78° |
| 2026-04-25 13:33 | 36.78375 | -9.28205 | 33091 ft | 486 kts | 80° |
| 2026-04-25 13:33 | 36.78520 | -9.23954 | 33091 ft | 494 kts | 91° |
| 2026-04-25 13:34 | 36.78001 | -9.19700 | 33098 ft | 502 kts | 103° |
| 2026-04-25 13:34 | 36.75384 | -9.11549 | 33084 ft | 504 kts | 115° |
| 2026-04-25 13:34 | 36.73841 | -9.07733 | 33087 ft | 482 kts | 116° |
| 2026-04-25 13:35 | 36.72327 | -9.04095 | 33085 ft | 462 kts | 116° |
| 2026-04-25 13:35 | 36.70875 | -9.00613 | 33083 ft | 442 kts | 116° |
| 2026-04-25 13:35 | 36.69490 | -8.97273 | 33081 ft | 425 kts | 115° |
| 2026-04-25 13:36 | 36.66841 | -8.90843 | 33083 ft | 412 kts | 115° |
| 2026-04-25 13:36 | 36.64222 | -8.84470 | 33083 ft | 415 kts | 115° |
| 2026-04-25 13:37 | 36.61677 | -8.78294 | 33078 ft | 413 kts | 115° |
| 2026-04-25 13:37 | 36.59120 | -8.72107 | 33077 ft | 407 kts | 115° |
| 2026-04-25 13:38 | 36.56508 | -8.65793 | 33077 ft | 410 kts | 115° |
| 2026-04-25 13:38 | 36.53893 | -8.59487 | 33080 ft | 409 kts | 115° |
| 2026-04-25 13:39 | 36.51279 | -8.53196 | 33077 ft | 410 kts | 115° |
| 2026-04-25 13:39 | 36.48659 | -8.46903 | 33080 ft | 410 kts | 115° |
| 2026-04-25 13:40 | 36.46031 | -8.40601 | 33077 ft | 410 kts | 115° |
| 2026-04-25 13:40 | 36.43414 | -8.34340 | 33081 ft | 411 kts | 115° |
| 2026-04-25 13:41 | 36.40780 | -8.28048 | 33081 ft | 411 kts | 115° |
| 2026-04-25 13:41 | 36.38138 | -8.21752 | 33082 ft | 411 kts | 115° |
| 2026-04-25 13:42 | 36.35488 | -8.15446 | 33083 ft | 411 kts | 115° |
| 2026-04-25 13:42 | 36.32838 | -8.09154 | 33083 ft | 411 kts | 115° |
| 2026-04-25 13:43 | 36.30187 | -8.02870 | 33083 ft | 411 kts | 115° |
| 2026-04-25 13:43 | 36.27528 | -7.96580 | 33077 ft | 412 kts | 115° |
| 2026-04-25 13:44 | 36.24863 | -7.90288 | 33078 ft | 412 kts | 115° |
| 2026-04-25 13:44 | 36.22213 | -7.84042 | 33076 ft | 412 kts | 115° |
| 2026-04-25 13:45 | 36.19549 | -7.77777 | 33070 ft | 412 kts | 115° |
| 2026-04-25 13:45 | 36.16875 | -7.71498 | 33060 ft | 412 kts | 115° |
| 2026-04-25 13:46 | 36.14198 | -7.65227 | 33062 ft | 412 kts | 115° |
| 2026-04-25 13:46 | 36.11520 | -7.58964 | 33055 ft | 412 kts | 115° |
| 2026-04-25 13:47 | 36.08838 | -7.52701 | 33058 ft | 412 kts | 115° |
| 2026-04-25 13:47 | 36.06151 | -7.46442 | 33055 ft | 412 kts | 115° |
| 2026-04-25 13:48 | 36.03537 | -7.40185 | 33048 ft | 411 kts | 110° |
| 2026-04-25 13:48 | 36.01913 | -7.33476 | 33048 ft | 405 kts | 96° |
| 2026-04-25 13:49 | 36.00906 | -7.26612 | 33051 ft | 406 kts | 96° |
| 2026-04-25 13:49 | 35.99870 | -7.19754 | 33050 ft | 407 kts | 96° |
| 2026-04-25 13:50 | 35.98823 | -7.12861 | 33057 ft | 408 kts | 96° |
| 2026-04-25 13:50 | 35.97773 | -7.05967 | 33050 ft | 406 kts | 96° |
| 2026-04-25 13:51 | 35.96736 | -6.99196 | 33069 ft | 404 kts | 96° |
| 2026-04-25 13:51 | 35.95678 | -6.92291 | 32991 ft | 409 kts | 96° |
| 2026-04-25 13:51 | 35.95146 | -6.88843 | 32761 ft | 407 kts | 96° |
| 2026-04-25 13:52 | 35.94616 | -6.85410 | 32399 ft | 408 kts | 96° |
| 2026-04-25 13:52 | 35.94195 | -6.82684 | 32074 ft | 409 kts | 96° |
| 2026-04-25 13:52 | 35.94021 | -6.81560 | 31932 ft | 408 kts | 96° |
| 2026-04-25 13:52 | 35.93486 | -6.78104 | 31500 ft | 410 kts | 96° |
| 2026-04-25 13:53 | 35.93369 | -6.77351 | 31400 ft | 410 kts | 96° |
| 2026-04-25 13:53 | 35.92984 | -6.74872 | 31092 ft | 410 kts | 96° |
| 2026-04-25 13:53 | 35.92447 | -6.71423 | 30816 ft | 408 kts | 96° |
| 2026-04-25 13:53 | 35.91949 | -6.67989 | 30568 ft | 403 kts | 90° |
| 2026-04-25 13:54 | 35.91931 | -6.65714 | 30408 ft | 396 kts | 78° |
| 2026-04-25 13:54 | 35.92586 | -6.62440 | 30171 ft | 384 kts | 60° |
| 2026-04-25 13:54 | 35.93940 | -6.59720 | 29917 ft | 372 kts | 43° |
| 2026-04-25 13:54 | 35.95817 | -6.57591 | 29648 ft | 362 kts | 30° |
| 2026-04-25 13:55 | 35.97984 | -6.56081 | 29361 ft | 354 kts | 18° |
| 2026-04-25 13:55 | 36.00321 | -6.55209 | 29080 ft | 347 kts | 6° |
| 2026-04-25 13:55 | 36.02710 | -6.55002 | 28819 ft | 343 kts | 354° |
| 2026-04-25 13:55 | 36.05052 | -6.55461 | 28547 ft | 340 kts | 342° |
| 2026-04-25 13:56 | 36.07239 | -6.56561 | 28288 ft | 339 kts | 330° |
| 2026-04-25 13:56 | 36.09161 | -6.58247 | 28017 ft | 340 kts | 319° |
| 2026-04-25 13:56 | 36.10721 | -6.60439 | 27800 ft | 340 kts | 306° |
| 2026-04-25 13:56 | 36.11826 | -6.62990 | 27679 ft | 343 kts | 294° |
| 2026-04-25 13:57 | 36.12459 | -6.65891 | 27551 ft | 348 kts | 284° |
| 2026-04-25 13:57 | 36.12755 | -6.67849 | 27466 ft | 348 kts | 285° |
| 2026-04-25 13:57 | 36.13383 | -6.71736 | 27294 ft | 347 kts | 285° |
| 2026-04-25 13:57 | 36.13845 | -6.74665 | 27155 ft | 346 kts | 284° |
| 2026-04-25 13:58 | 36.14290 | -6.77591 | 27062 ft | 345 kts | 284° |
| 2026-04-25 13:58 | 36.14721 | -6.80504 | 27047 ft | 345 kts | 284° |
| 2026-04-25 13:58 | 36.15150 | -6.83429 | 27048 ft | 346 kts | 284° |
| 2026-04-25 13:58 | 36.15581 | -6.86377 | 27050 ft | 347 kts | 284° |
| 2026-04-25 13:59 | 36.16009 | -6.89314 | 27051 ft | 346 kts | 284° |
| 2026-04-25 13:59 | 36.16438 | -6.92245 | 27050 ft | 347 kts | 284° |
| 2026-04-25 13:59 | 36.16869 | -6.95183 | 27050 ft | 347 kts | 284° |
| 2026-04-25 13:59 | 36.17300 | -6.98120 | 27053 ft | 347 kts | 284° |
| 2026-04-25 14:00 | 36.17587 | -7.00066 | 27053 ft | 347 kts | 284° |
| 2026-04-25 14:00 | 36.18166 | -7.03993 | 27054 ft | 347 kts | 284° |
| 2026-04-25 14:00 | 36.18600 | -7.06933 | 27053 ft | 347 kts | 284° |
| 2026-04-25 14:00 | 36.19031 | -7.09840 | 27054 ft | 347 kts | 284° |
| 2026-04-25 14:01 | 36.19467 | -7.12787 | 27055 ft | 347 kts | 284° |
| 2026-04-25 14:01 | 36.19903 | -7.15716 | 27055 ft | 347 kts | 284° |
| 2026-04-25 14:01 | 36.20340 | -7.18656 | 27054 ft | 347 kts | 284° |
| 2026-04-25 14:01 | 36.20686 | -7.21618 | 27057 ft | 350 kts | 276° |
| 2026-04-25 14:02 | 36.20528 | -7.24646 | 27055 ft | 356 kts | 263° |
| 2026-04-25 14:02 | 36.19788 | -7.27582 | 27056 ft | 362 kts | 249° |
| 2026-04-25 14:02 | 36.18459 | -7.30265 | 27055 ft | 369 kts | 234° |
| 2026-04-25 14:02 | 36.17282 | -7.31799 | 27056 ft | 373 kts | 224° |
| 2026-04-25 14:03 | 36.14313 | -7.34076 | 27054 ft | 381 kts | 204° |
| 2026-04-25 14:03 | 36.11759 | -7.34895 | 27056 ft | 386 kts | 188° |
| 2026-04-25 14:03 | 36.09069 | -7.34869 | 27056 ft | 389 kts | 172° |
| 2026-04-25 14:03 | 36.06460 | -7.33969 | 27057 ft | 391 kts | 156° |
| 2026-04-25 14:04 | 36.04128 | -7.32250 | 27056 ft | 390 kts | 139° |
| 2026-04-25 14:04 | 36.02251 | -7.29844 | 27058 ft | 388 kts | 123° |
| 2026-04-25 14:04 | 36.00957 | -7.26946 | 27057 ft | 384 kts | 107° |
| 2026-04-25 14:04 | 36.00306 | -7.23786 | 27060 ft | 379 kts | 95° |
| 2026-04-25 14:05 | 35.99881 | -7.20573 | 27053 ft | 379 kts | 96° |
| 2026-04-25 14:05 | 35.99431 | -7.17353 | 27054 ft | 379 kts | 96° |
| 2026-04-25 14:05 | 35.98965 | -7.14189 | 27055 ft | 380 kts | 97° |
| 2026-04-25 14:05 | 35.98479 | -7.10976 | 27051 ft | 380 kts | 97° |
| 2026-04-25 14:06 | 35.97987 | -7.07771 | 27052 ft | 380 kts | 97° |
| 2026-04-25 14:06 | 35.97494 | -7.04563 | 27054 ft | 380 kts | 97° |
| 2026-04-25 14:06 | 35.97001 | -7.01354 | 27051 ft | 380 kts | 97° |
| 2026-04-25 14:06 | 35.96511 | -6.98142 | 27052 ft | 380 kts | 96° |
| 2026-04-25 14:07 | 35.96298 | -6.94869 | 27056 ft | 389 kts | 88° |
| 2026-04-25 14:07 | 35.96188 | -6.91473 | 27050 ft | 402 kts | 88° |
| 2026-04-25 14:07 | 35.96075 | -6.87966 | 27048 ft | 415 kts | 88° |
| 2026-04-25 14:07 | 35.95954 | -6.84346 | 27051 ft | 428 kts | 89° |
| 2026-04-25 14:08 | 35.95824 | -6.80637 | 27046 ft | 434 kts | 89° |
| 2026-04-25 14:08 | 35.95688 | -6.76966 | 27047 ft | 432 kts | 89° |
| 2026-04-25 14:08 | 35.95549 | -6.73256 | 27044 ft | 433 kts | 89° |
| 2026-04-25 14:08 | 35.95411 | -6.69489 | 27043 ft | 445 kts | 89° |
| 2026-04-25 14:09 | 35.95270 | -6.65627 | 27045 ft | 458 kts | 89° |
| 2026-04-25 14:09 | 35.95122 | -6.61667 | 27039 ft | 463 kts | 89° |
| 2026-04-25 14:09 | 35.94970 | -6.57707 | 27041 ft | 460 kts | 89° |
| 2026-04-25 14:09 | 35.94869 | -6.55093 | 27040 ft | 460 kts | 89° |
| 2026-04-25 14:10 | 35.94664 | -6.49807 | 27037 ft | 460 kts | 89° |
| 2026-04-25 14:10 | 35.94510 | -6.45861 | 27036 ft | 460 kts | 89° |
| 2026-04-25 14:10 | 35.94356 | -6.41913 | 27034 ft | 460 kts | 89° |
| 2026-04-25 14:10 | 35.94200 | -6.37975 | 27036 ft | 460 kts | 89° |
| 2026-04-25 14:11 | 35.94044 | -6.34036 | 27027 ft | 460 kts | 89° |
| 2026-04-25 14:11 | 35.93886 | -6.30093 | 27032 ft | 460 kts | 89° |
| 2026-04-25 14:11 | 35.93729 | -6.26207 | 27027 ft | 459 kts | 89° |
| 2026-04-25 14:11 | 35.93568 | -6.22280 | 27024 ft | 458 kts | 90° |
| 2026-04-25 14:12 | 35.93408 | -6.18356 | 27021 ft | 457 kts | 89° |
| 2026-04-25 14:12 | 35.93409 | -6.14444 | 27020 ft | 455 kts | 85° |
| 2026-04-25 14:12 | 35.93487 | -6.10533 | 27021 ft | 455 kts | 85° |
| 2026-04-25 14:12 | 35.93563 | -6.06625 | 27015 ft | 454 kts | 85° |
| 2026-04-25 14:13 | 35.93635 | -6.02735 | 27015 ft | 453 kts | 85° |
| 2026-04-25 14:13 | 35.93704 | -5.98837 | 27014 ft | 453 kts | 86° |
| 2026-04-25 14:13 | 35.93825 | -5.94953 | 27003 ft | 451 kts | 82° |
| 2026-04-25 14:13 | 35.94188 | -5.91117 | 27003 ft | 450 kts | 80° |
| 2026-04-25 14:14 | 35.94559 | -5.87321 | 27008 ft | 450 kts | 80° |
| 2026-04-25 14:14 | 35.94928 | -5.83487 | 27016 ft | 450 kts | 80° |
| 2026-04-25 14:14 | 35.95293 | -5.79658 | 27009 ft | 449 kts | 81° |
| 2026-04-25 14:14 | 35.95656 | -5.75828 | 27010 ft | 449 kts | 81° |
| 2026-04-25 14:15 | 35.96019 | -5.71990 | 27019 ft | 449 kts | 81° |
| 2026-04-25 14:15 | 35.96140 | -5.70702 | 27032 ft | 449 kts | 81° |
| 2026-04-25 14:15 | 35.96715 | -5.64590 | 27059 ft | 449 kts | 81° |
| 2026-04-25 14:15 | 35.97073 | -5.60762 | 27064 ft | 449 kts | 81° |
| 2026-04-25 14:16 | 35.97431 | -5.56932 | 27057 ft | 448 kts | 81° |
| 2026-04-25 14:16 | 35.97782 | -5.53154 | 27059 ft | 448 kts | 81° |
| 2026-04-25 14:16 | 35.98138 | -5.49319 | 27065 ft | 447 kts | 81° |
| 2026-04-25 14:16 | 35.98485 | -5.45550 | 27064 ft | 435 kts | 81° |
| 2026-04-25 14:17 | 35.98818 | -5.41899 | 27068 ft | 421 kts | 81° |
| 2026-04-25 14:17 | 35.99141 | -5.38360 | 27069 ft | 408 kts | 81° |
| 2026-04-25 14:17 | 35.99451 | -5.34959 | 27067 ft | 395 kts | 81° |
| 2026-04-25 14:17 | 35.99757 | -5.31599 | 27071 ft | 385 kts | 81° |
| 2026-04-25 14:18 | 36.00056 | -5.28335 | 27072 ft | 390 kts | 81° |
| 2026-04-25 14:18 | 36.00363 | -5.24983 | 27070 ft | 393 kts | 81° |
| 2026-04-25 14:18 | 36.00670 | -5.21634 | 27068 ft | 392 kts | 81° |
| 2026-04-25 14:18 | 36.00983 | -5.18304 | 27068 ft | 391 kts | 81° |
| 2026-04-25 14:19 | 36.01299 | -5.14966 | 27067 ft | 391 kts | 81° |
| 2026-04-25 14:19 | 36.01616 | -5.11626 | 27067 ft | 391 kts | 81° |
| 2026-04-25 14:19 | 36.01930 | -5.08297 | 27070 ft | 391 kts | 81° |
| 2026-04-25 14:19 | 36.02248 | -5.04917 | 27067 ft | 402 kts | 81° |
| 2026-04-25 14:20 | 36.02353 | -5.03800 | 27066 ft | 406 kts | 81° |
| 2026-04-25 14:20 | 36.02683 | -5.00276 | 27067 ft | 419 kts | 82° |
| 2026-04-25 14:20 | 36.03247 | -4.94186 | 27071 ft | 440 kts | 82° |
| 2026-04-25 14:20 | 36.03597 | -4.90388 | 27065 ft | 447 kts | 82° |
| 2026-04-25 14:21 | 36.03944 | -4.86581 | 27070 ft | 444 kts | 82° |
| 2026-04-25 14:21 | 36.04290 | -4.82786 | 27065 ft | 443 kts | 82° |
| 2026-04-25 14:21 | 36.04633 | -4.79012 | 27067 ft | 442 kts | 82° |
| 2026-04-25 14:21 | 36.04811 | -4.77052 | 27067 ft | 442 kts | 82° |
| 2026-04-25 14:22 | 36.05225 | -4.72479 | 27065 ft | 441 kts | 82° |
| 2026-04-25 14:22 | 36.05560 | -4.68761 | 27068 ft | 440 kts | 83° |
| 2026-04-25 14:22 | 36.05898 | -4.65006 | 27065 ft | 439 kts | 83° |
| 2026-04-25 14:22 | 36.06234 | -4.61251 | 27068 ft | 439 kts | 83° |
| 2026-04-25 14:23 | 36.06570 | -4.57493 | 27069 ft | 439 kts | 83° |
| 2026-04-25 14:23 | 36.06903 | -4.53744 | 27070 ft | 439 kts | 83° |
| 2026-04-25 14:23 | 36.07236 | -4.49987 | 27072 ft | 438 kts | 83° |
| 2026-04-25 14:23 | 36.07567 | -4.46245 | 27071 ft | 438 kts | 83° |
| 2026-04-25 14:24 | 36.07897 | -4.42497 | 27068 ft | 438 kts | 83° |
| 2026-04-25 14:24 | 36.08227 | -4.38739 | 27070 ft | 438 kts | 83° |
| 2026-04-25 14:24 | 36.08551 | -4.35034 | 27069 ft | 437 kts | 83° |
| 2026-04-25 14:24 | 36.08876 | -4.31295 | 27072 ft | 437 kts | 83° |
| 2026-04-25 14:25 | 36.08985 | -4.30034 | 27073 ft | 437 kts | 83° |
| 2026-04-25 14:25 | 36.09523 | -4.23824 | 27072 ft | 436 kts | 84° |
| 2026-04-25 14:25 | 36.09844 | -4.20091 | 27071 ft | 436 kts | 84° |
| 2026-04-25 14:25 | 36.09952 | -4.18833 | 27072 ft | 436 kts | 84° |
| 2026-04-25 14:26 | 36.10484 | -4.12618 | 27070 ft | 437 kts | 84° |
| 2026-04-25 14:26 | 36.10802 | -4.08882 | 27069 ft | 437 kts | 84° |
| 2026-04-25 14:26 | 36.11116 | -4.05178 | 27072 ft | 437 kts | 84° |
| 2026-04-25 14:26 | 36.11432 | -4.01440 | 27074 ft | 437 kts | 84° |
| 2026-04-25 14:27 | 36.11747 | -3.97704 | 27072 ft | 437 kts | 84° |
| 2026-04-25 14:27 | 36.12061 | -3.93956 | 27076 ft | 437 kts | 84° |
| 2026-04-25 14:27 | 36.12374 | -3.90205 | 27074 ft | 437 kts | 84° |
| 2026-04-25 14:27 | 36.12687 | -3.86451 | 27073 ft | 437 kts | 84° |
| 2026-04-25 14:28 | 36.12992 | -3.82763 | 27071 ft | 437 kts | 84° |
| 2026-04-25 14:28 | 36.13303 | -3.79007 | 27072 ft | 437 kts | 84° |
| 2026-04-25 14:28 | 36.13610 | -3.75270 | 27072 ft | 436 kts | 84° |
| 2026-04-25 14:28 | 36.13916 | -3.71533 | 27077 ft | 436 kts | 84° |
| 2026-04-25 14:29 | 36.14221 | -3.67805 | 27074 ft | 435 kts | 84° |
| 2026-04-25 14:29 | 36.14524 | -3.64078 | 27075 ft | 435 kts | 84° |
| 2026-04-25 14:29 | 36.14826 | -3.60345 | 27071 ft | 435 kts | 84° |
| 2026-04-25 14:29 | 36.15127 | -3.56619 | 27073 ft | 434 kts | 84° |
| 2026-04-25 14:30 | 36.15421 | -3.52960 | 27074 ft | 433 kts | 84° |
| 2026-04-25 14:30 | 36.16014 | -3.45533 | 27072 ft | 432 kts | 84° |
| 2026-04-25 14:30 | 36.16308 | -3.41833 | 27069 ft | 432 kts | 84° |
| 2026-04-25 14:31 | 36.16602 | -3.38118 | 27069 ft | 431 kts | 84° |
| 2026-04-25 14:31 | 36.16889 | -3.34473 | 27070 ft | 431 kts | 84° |
| 2026-04-25 14:31 | 36.17178 | -3.30793 | 27070 ft | 430 kts | 84° |
| 2026-04-25 14:31 | 36.17467 | -3.27099 | 27070 ft | 429 kts | 84° |
| 2026-04-25 14:32 | 36.17753 | -3.23425 | 27071 ft | 428 kts | 84° |
| 2026-04-25 14:32 | 36.18039 | -3.19752 | 27071 ft | 428 kts | 84° |
| 2026-04-25 14:32 | 36.18323 | -3.16080 | 27072 ft | 427 kts | 84° |
| 2026-04-25 14:32 | 36.18605 | -3.12418 | 27068 ft | 427 kts | 84° |
| 2026-04-25 14:33 | 36.18882 | -3.08803 | 27066 ft | 426 kts | 84° |
| 2026-04-25 14:33 | 36.19161 | -3.05142 | 27069 ft | 426 kts | 84° |
| 2026-04-25 14:33 | 36.19438 | -3.01495 | 27067 ft | 426 kts | 84° |
| 2026-04-25 14:33 | 36.19715 | -2.97837 | 27067 ft | 425 kts | 84° |
| 2026-04-25 14:34 | 36.19989 | -2.94213 | 27068 ft | 424 kts | 84° |
| 2026-04-25 14:34 | 36.20087 | -2.90558 | 27067 ft | 425 kts | 93° |
| 2026-04-25 14:34 | 36.19656 | -2.86944 | 27067 ft | 425 kts | 103° |
| 2026-04-25 14:34 | 36.18701 | -2.83477 | 27064 ft | 427 kts | 113° |
| 2026-04-25 14:35 | 36.17341 | -2.80201 | 27062 ft | 428 kts | 116° |
| 2026-04-25 14:35 | 36.15979 | -2.76979 | 27063 ft | 427 kts | 116° |
| 2026-04-25 14:35 | 36.14594 | -2.73680 | 27060 ft | 426 kts | 116° |
| 2026-04-25 14:35 | 36.13250 | -2.70472 | 27062 ft | 425 kts | 116° |
| 2026-04-25 14:36 | 36.11884 | -2.67217 | 27060 ft | 426 kts | 116° |
| 2026-04-25 14:36 | 36.10520 | -2.63972 | 27059 ft | 425 kts | 116° |
| 2026-04-25 14:36 | 36.09155 | -2.60730 | 27060 ft | 425 kts | 116° |
| 2026-04-25 14:36 | 36.07791 | -2.57496 | 27062 ft | 425 kts | 116° |
| 2026-04-25 14:37 | 36.06422 | -2.54252 | 27063 ft | 424 kts | 116° |
| 2026-04-25 14:37 | 36.05055 | -2.51014 | 27063 ft | 424 kts | 116° |
| 2026-04-25 14:37 | 36.03690 | -2.47785 | 27062 ft | 424 kts | 116° |
| 2026-04-25 14:37 | 36.02783 | -2.45642 | 27064 ft | 424 kts | 116° |
| 2026-04-25 14:38 | 36.01420 | -2.42421 | 27059 ft | 423 kts | 116° |
| 2026-04-25 14:38 | 36.00054 | -2.39198 | 27059 ft | 423 kts | 116° |
| 2026-04-25 14:38 | 35.98248 | -2.34939 | 27056 ft | 422 kts | 116° |
| 2026-04-25 14:38 | 35.97328 | -2.32774 | 27052 ft | 422 kts | 116° |
| 2026-04-25 14:39 | 35.95522 | -2.28525 | 27055 ft | 421 kts | 116° |
| 2026-04-25 14:39 | 35.94605 | -2.26372 | 27053 ft | 421 kts | 116° |
| 2026-04-25 14:39 | 35.93241 | -2.23169 | 27050 ft | 421 kts | 116° |
| 2026-04-25 14:39 | 35.91897 | -2.20016 | 27048 ft | 421 kts | 116° |
| 2026-04-25 14:40 | 35.90531 | -2.16817 | 27048 ft | 420 kts | 116° |
| 2026-04-25 14:40 | 35.89168 | -2.13627 | 27048 ft | 420 kts | 117° |
| 2026-04-25 14:40 | 35.87806 | -2.10442 | 27047 ft | 420 kts | 117° |
| 2026-04-25 14:40 | 35.86437 | -2.07243 | 27049 ft | 421 kts | 117° |
| 2026-04-25 14:41 | 35.85067 | -2.04044 | 27050 ft | 421 kts | 117° |
| 2026-04-25 14:41 | 35.83696 | -2.00847 | 27045 ft | 421 kts | 117° |
| 2026-04-25 14:41 | 35.82336 | -1.97708 | 27043 ft | 422 kts | 118° |
| 2026-04-25 14:41 | 35.80910 | -1.94535 | 27045 ft | 422 kts | 118° |
| 2026-04-25 14:42 | 35.79472 | -1.91370 | 27042 ft | 423 kts | 118° |
| 2026-04-25 14:42 | 35.78524 | -1.89285 | 27044 ft | 423 kts | 118° |
| 2026-04-25 14:42 | 35.76601 | -1.85045 | 27044 ft | 423 kts | 118° |
| 2026-04-25 14:42 | 35.75166 | -1.81872 | 27043 ft | 424 kts | 118° |
| 2026-04-25 14:43 | 35.73729 | -1.78695 | 27042 ft | 424 kts | 119° |
| 2026-04-25 14:43 | 35.72294 | -1.75523 | 27042 ft | 425 kts | 119° |
| 2026-04-25 14:43 | 35.70856 | -1.72346 | 27040 ft | 425 kts | 119° |
| 2026-04-25 14:43 | 35.69431 | -1.69202 | 27041 ft | 425 kts | 119° |
| 2026-04-25 14:44 | 35.67991 | -1.66029 | 27039 ft | 425 kts | 119° |
| 2026-04-25 14:44 | 35.66550 | -1.62856 | 27039 ft | 426 kts | 119° |
| 2026-04-25 14:44 | 35.65097 | -1.59657 | 27042 ft | 426 kts | 119° |
| 2026-04-25 14:44 | 35.63646 | -1.56469 | 27038 ft | 426 kts | 119° |
| 2026-04-25 14:45 | 35.62196 | -1.53284 | 27036 ft | 426 kts | 119° |
| 2026-04-25 14:45 | 35.60764 | -1.50143 | 27038 ft | 427 kts | 119° |
| 2026-04-25 14:45 | 35.59297 | -1.46928 | 27038 ft | 427 kts | 119° |
| 2026-04-25 14:45 | 35.57867 | -1.43795 | 27038 ft | 427 kts | 119° |
| 2026-04-25 14:46 | 35.56404 | -1.40595 | 27034 ft | 427 kts | 119° |
| 2026-04-25 14:46 | 35.54949 | -1.37413 | 27032 ft | 427 kts | 120° |
| 2026-04-25 14:46 | 35.53493 | -1.34234 | 27034 ft | 427 kts | 120° |
| 2026-04-25 14:46 | 35.52041 | -1.31067 | 27032 ft | 427 kts | 120° |
| 2026-04-25 14:47 | 35.50578 | -1.27878 | 27032 ft | 427 kts | 120° |
| 2026-04-25 14:47 | 35.49610 | -1.25770 | 27032 ft | 427 kts | 120° |
| 2026-04-25 14:47 | 35.47656 | -1.21517 | 27031 ft | 427 kts | 120° |
| 2026-04-25 14:47 | 35.46214 | -1.18383 | 27031 ft | 427 kts | 120° |
| 2026-04-25 14:48 | 35.44753 | -1.15210 | 27031 ft | 427 kts | 120° |
| 2026-04-25 14:48 | 35.43287 | -1.12030 | 27032 ft | 427 kts | 120° |
| 2026-04-25 14:48 | 35.41819 | -1.08848 | 27032 ft | 427 kts | 120° |
| 2026-04-25 14:48 | 35.40356 | -1.05681 | 27031 ft | 427 kts | 120° |
| 2026-04-25 14:49 | 35.38886 | -1.02500 | 27030 ft | 428 kts | 120° |
| 2026-04-25 14:49 | 35.37402 | -0.99337 | 27031 ft | 428 kts | 122° |
| 2026-04-25 14:49 | 35.35725 | -0.96377 | 27032 ft | 428 kts | 128° |
| 2026-04-25 14:49 | 35.33771 | -0.93619 | 27029 ft | 428 kts | 134° |
| 2026-04-25 14:50 | 35.31700 | -0.90997 | 27024 ft | 429 kts | 134° |
| 2026-04-25 14:50 | 35.29631 | -0.88356 | 27026 ft | 429 kts | 133° |
| 2026-04-25 14:50 | 35.27566 | -0.85712 | 27026 ft | 429 kts | 133° |
| 2026-04-25 14:50 | 35.25506 | -0.83075 | 27024 ft | 429 kts | 133° |
| 2026-04-25 14:51 | 35.23437 | -0.80430 | 27025 ft | 429 kts | 134° |
| 2026-04-25 14:51 | 35.21358 | -0.77791 | 27026 ft | 430 kts | 134° |
| 2026-04-25 14:51 | 35.19280 | -0.75159 | 27024 ft | 430 kts | 134° |
| 2026-04-25 14:51 | 35.17233 | -0.72566 | 27025 ft | 430 kts | 134° |
| 2026-04-25 14:52 | 35.15152 | -0.69929 | 27024 ft | 430 kts | 134° |
| 2026-04-25 14:52 | 35.13064 | -0.67285 | 27028 ft | 436 kts | 134° |
| 2026-04-25 14:52 | 35.10929 | -0.64584 | 27027 ft | 448 kts | 134° |
| 2026-04-25 14:52 | 35.09481 | -0.62754 | 27026 ft | 455 kts | 134° |
| 2026-04-25 14:53 | 35.06506 | -0.58995 | 27023 ft | 460 kts | 134° |
| 2026-04-25 14:53 | 35.04309 | -0.56224 | 27024 ft | 460 kts | 134° |
| 2026-04-25 14:53 | 35.02078 | -0.53411 | 27023 ft | 460 kts | 134° |
| 2026-04-25 14:53 | 34.99850 | -0.50604 | 27024 ft | 461 kts | 134° |
| 2026-04-25 14:54 | 34.97621 | -0.47799 | 27022 ft | 461 kts | 134° |
| 2026-04-25 14:54 | 34.95383 | -0.44983 | 27022 ft | 462 kts | 135° |
| 2026-04-25 14:54 | 34.93141 | -0.42167 | 27025 ft | 462 kts | 135° |
| 2026-04-25 14:54 | 34.90902 | -0.39355 | 27023 ft | 462 kts | 135° |
| 2026-04-25 14:55 | 34.88661 | -0.36545 | 27023 ft | 463 kts | 135° |
| 2026-04-25 14:55 | 34.86414 | -0.33728 | 27019 ft | 463 kts | 135° |
| 2026-04-25 14:55 | 34.84165 | -0.30911 | 27018 ft | 463 kts | 135° |
| 2026-04-25 14:55 | 34.81944 | -0.28132 | 27020 ft | 464 kts | 135° |
| 2026-04-25 14:56 | 34.79686 | -0.25310 | 27021 ft | 465 kts | 135° |
| 2026-04-25 14:56 | 34.77428 | -0.22488 | 27019 ft | 469 kts | 135° |
| 2026-04-25 14:56 | 34.75130 | -0.19622 | 27022 ft | 478 kts | 135° |
| 2026-04-25 14:56 | 34.72800 | -0.16716 | 27021 ft | 480 kts | 136° |
| 2026-04-25 14:57 | 34.70472 | -0.13815 | 27019 ft | 480 kts | 136° |
| 2026-04-25 14:57 | 34.68140 | -0.10911 | 27019 ft | 480 kts | 136° |
| 2026-04-25 14:57 | 34.65803 | -0.08003 | 27021 ft | 481 kts | 136° |
| 2026-04-25 14:57 | 34.63463 | -0.05094 | 27021 ft | 481 kts | 136° |
| 2026-04-25 14:58 | 34.61124 | -0.02190 | 27023 ft | 482 kts | 136° |
| 2026-04-25 14:58 | 34.58780 | 0.00719 | 27014 ft | 482 kts | 136° |
| 2026-04-25 14:58 | 34.56435 | 0.03627 | 27016 ft | 482 kts | 136° |
| 2026-04-25 14:58 | 34.54079 | 0.06545 | 27017 ft | 483 kts | 136° |
| 2026-04-25 14:59 | 34.51760 | 0.09415 | 27014 ft | 484 kts | 136° |
| 2026-04-25 14:59 | 34.49397 | 0.12337 | 27012 ft | 485 kts | 137° |
| 2026-04-25 14:59 | 34.47023 | 0.15269 | 27011 ft | 486 kts | 137° |
| 2026-04-25 14:59 | 34.44647 | 0.18202 | 27007 ft | 488 kts | 137° |
| 2026-04-25 15:00 | 34.42268 | 0.21136 | 27007 ft | 489 kts | 137° |
| 2026-04-25 15:00 | 34.39885 | 0.24074 | 27005 ft | 490 kts | 137° |
| 2026-04-25 15:00 | 34.37488 | 0.27025 | 27003 ft | 491 kts | 137° |
| 2026-04-25 15:00 | 34.35091 | 0.29973 | 27003 ft | 492 kts | 137° |
| 2026-04-25 15:01 | 34.32685 | 0.32930 | 27000 ft | 494 kts | 137° |
| 2026-04-25 15:01 | 34.30278 | 0.35886 | 26996 ft | 494 kts | 137° |
| 2026-04-25 15:01 | 34.27855 | 0.38859 | 26992 ft | 496 kts | 138° |
| 2026-04-25 15:01 | 34.25434 | 0.41827 | 26989 ft | 496 kts | 138° |
| 2026-04-25 15:02 | 34.23007 | 0.44799 | 26989 ft | 497 kts | 138° |
| 2026-04-25 15:02 | 34.20572 | 0.47779 | 26988 ft | 497 kts | 138° |
| 2026-04-25 15:02 | 34.18170 | 0.50716 | 26985 ft | 498 kts | 138° |
| 2026-04-25 15:02 | 34.15733 | 0.53693 | 26975 ft | 498 kts | 139° |
| 2026-04-25 15:03 | 34.13308 | 0.56654 | 26723 ft | 495 kts | 139° |
| 2026-04-25 15:03 | 34.10890 | 0.59605 | 26364 ft | 489 kts | 139° |
| 2026-04-25 15:03 | 34.08518 | 0.62500 | 26163 ft | 479 kts | 139° |
| 2026-04-25 15:03 | 34.06193 | 0.65333 | 25693 ft | 473 kts | 139° |
| 2026-04-25 15:04 | 34.03885 | 0.68139 | 25144 ft | 469 kts | 139° |
| 2026-04-25 15:04 | 34.01619 | 0.70891 | 24637 ft | 465 kts | 139° |
| 2026-04-25 15:04 | 33.99348 | 0.73647 | 24123 ft | 461 kts | 139° |
| 2026-04-25 15:04 | 33.97090 | 0.76386 | 23605 ft | 457 kts | 139° |
| 2026-04-25 15:05 | 33.95613 | 0.78178 | 23221 ft | 454 kts | 139° |
| 2026-04-25 15:05 | 33.92656 | 0.81761 | 22478 ft | 448 kts | 139° |
| 2026-04-25 15:05 | 33.90470 | 0.84409 | 21930 ft | 443 kts | 139° |
| 2026-04-25 15:06 | 33.86162 | 0.89620 | 20860 ft | 433 kts | 139° |
| 2026-04-25 15:06 | 33.84044 | 0.92178 | 20338 ft | 429 kts | 139° |
| 2026-04-25 15:06 | 33.81948 | 0.94709 | 19823 ft | 424 kts | 139° |
| 2026-04-25 15:06 | 33.79879 | 0.97205 | 19314 ft | 419 kts | 140° |
| 2026-04-25 15:07 | 33.77859 | 0.99639 | 18825 ft | 414 kts | 140° |
| 2026-04-25 15:07 | 33.75843 | 1.02068 | 18426 ft | 406 kts | 140° |
| 2026-04-25 15:07 | 33.73854 | 1.04464 | 18314 ft | 405 kts | 140° |
| 2026-04-25 15:07 | 33.71845 | 1.06875 | 18212 ft | 409 kts | 140° |
| 2026-04-25 15:08 | 33.69911 | 1.09385 | 18096 ft | 412 kts | 133° |
| 2026-04-25 15:08 | 33.68445 | 1.12338 | 18061 ft | 412 kts | 119° |
| 2026-04-25 15:08 | 33.67546 | 1.15644 | 18071 ft | 423 kts | 107° |
| 2026-04-25 15:08 | 33.67269 | 1.19187 | 18062 ft | 431 kts | 93° |
| 2026-04-25 15:09 | 33.67674 | 1.22775 | 18046 ft | 439 kts | 79° |
| 2026-04-25 15:09 | 33.68774 | 1.26215 | 18038 ft | 445 kts | 64° |
| 2026-04-25 15:09 | 33.72616 | 1.31816 | 17981 ft | 427 kts | 45° |
| 2026-04-25 15:10 | 33.74733 | 1.34347 | 17979 ft | 431 kts | 46° |
| 2026-04-25 15:10 | 33.76856 | 1.36914 | 17967 ft | 432 kts | 46° |
| 2026-04-25 15:10 | 33.81081 | 1.42046 | 17956 ft | 431 kts | 46° |
| 2026-04-25 15:11 | 33.83186 | 1.44605 | 17949 ft | 441 kts | 46° |
| 2026-04-25 15:11 | 33.85366 | 1.47254 | 17941 ft | 445 kts | 46° |
| 2026-04-25 15:11 | 33.87543 | 1.49897 | 17935 ft | 443 kts | 46° |
| 2026-04-25 15:12 | 33.91889 | 1.55169 | 17941 ft | 444 kts | 46° |
| 2026-04-25 15:12 | 33.94060 | 1.57802 | 17943 ft | 443 kts | 46° |
| 2026-04-25 15:12 | 33.96235 | 1.60440 | 17943 ft | 444 kts | 46° |
| 2026-04-25 15:12 | 33.96968 | 1.61329 | 17940 ft | 444 kts | 46° |
| 2026-04-25 15:13 | 34.00585 | 1.65714 | 17936 ft | 442 kts | 46° |
| 2026-04-25 15:13 | 34.04905 | 1.70949 | 17944 ft | 443 kts | 46° |
| 2026-04-25 15:13 | 34.07080 | 1.73583 | 17942 ft | 442 kts | 46° |
| 2026-04-25 15:14 | 34.09247 | 1.76208 | 17943 ft | 442 kts | 46° |
| 2026-04-25 15:14 | 34.11417 | 1.78834 | 17946 ft | 441 kts | 46° |
| 2026-04-25 15:14 | 34.13594 | 1.81470 | 17948 ft | 441 kts | 46° |
| 2026-04-25 15:14 | 34.15731 | 1.84055 | 17949 ft | 441 kts | 45° |
| 2026-04-25 15:15 | 34.18116 | 1.86386 | 17952 ft | 442 kts | 31° |
| 2026-04-25 15:15 | 34.20894 | 1.87922 | 17953 ft | 438 kts | 15° |
| 2026-04-25 15:15 | 34.23874 | 1.88555 | 17951 ft | 433 kts | 359° |
| 2026-04-25 15:15 | 34.26846 | 1.88253 | 17954 ft | 427 kts | 343° |
| 2026-04-25 15:16 | 34.29604 | 1.87052 | 17951 ft | 419 kts | 327° |
| 2026-04-25 15:16 | 34.31962 | 1.85043 | 17952 ft | 409 kts | 311° |
| 2026-04-25 15:16 | 34.34814 | 1.79351 | 17953 ft | 391 kts | 280° |
| 2026-04-25 15:17 | 34.34666 | 1.73043 | 17958 ft | 376 kts | 248° |
| 2026-04-25 15:17 | 34.33478 | 1.70249 | 17957 ft | 371 kts | 232° |
| 2026-04-25 15:17 | 34.31678 | 1.68043 | 17956 ft | 368 kts | 216° |
| 2026-04-25 15:18 | 34.29421 | 1.66600 | 17950 ft | 368 kts | 200° |
| 2026-04-25 15:18 | 34.24298 | 1.65886 | 17952 ft | 373 kts | 184° |
| 2026-04-25 15:18 | 34.21729 | 1.65566 | 17950 ft | 371 kts | 194° |
| 2026-04-25 15:19 | 34.19308 | 1.64520 | 17949 ft | 369 kts | 207° |
| 2026-04-25 15:19 | 34.18578 | 1.64039 | 17950 ft | 369 kts | 211° |
| 2026-04-25 15:19 | 34.15295 | 1.60769 | 17953 ft | 371 kts | 225° |
| 2026-04-25 15:19 | 34.13517 | 1.58512 | 17953 ft | 368 kts | 225° |
| 2026-04-25 15:20 | 34.11749 | 1.56289 | 17956 ft | 368 kts | 224° |
| 2026-04-25 15:20 | 34.09926 | 1.54109 | 17951 ft | 368 kts | 224° |
| 2026-04-25 15:20 | 34.08099 | 1.51958 | 17952 ft | 367 kts | 223° |
| 2026-04-25 15:20 | 34.06272 | 1.49806 | 17948 ft | 367 kts | 224° |
| 2026-04-25 15:21 | 34.04446 | 1.47642 | 17948 ft | 367 kts | 224° |
| 2026-04-25 15:21 | 34.02628 | 1.45481 | 17947 ft | 367 kts | 224° |
| 2026-04-25 15:21 | 34.00811 | 1.43316 | 17946 ft | 366 kts | 224° |
| 2026-04-25 15:21 | 33.98999 | 1.41157 | 17946 ft | 366 kts | 224° |
| 2026-04-25 15:22 | 33.97209 | 1.39026 | 17945 ft | 367 kts | 224° |
| 2026-04-25 15:22 | 33.95365 | 1.36831 | 17949 ft | 374 kts | 224° |
| 2026-04-25 15:22 | 33.93535 | 1.34654 | 17958 ft | 365 kts | 224° |
| 2026-04-25 15:22 | 33.91735 | 1.32514 | 17965 ft | 364 kts | 224° |
| 2026-04-25 15:23 | 33.89921 | 1.30359 | 17968 ft | 366 kts | 224° |
| 2026-04-25 15:23 | 33.88107 | 1.28206 | 17971 ft | 366 kts | 224° |
| 2026-04-25 15:23 | 33.86291 | 1.26052 | 17981 ft | 365 kts | 224° |
| 2026-04-25 15:23 | 33.84503 | 1.23932 | 17987 ft | 365 kts | 224° |
| 2026-04-25 15:24 | 33.82701 | 1.21797 | 17993 ft | 366 kts | 224° |
| 2026-04-25 15:24 | 33.80879 | 1.19640 | 18001 ft | 366 kts | 224° |
| 2026-04-25 15:24 | 33.79064 | 1.17492 | 18009 ft | 366 kts | 224° |
| 2026-04-25 15:24 | 33.78448 | 1.16763 | 18008 ft | 366 kts | 224° |
| 2026-04-25 15:25 | 33.76017 | 1.13889 | 18010 ft | 367 kts | 224° |
| 2026-04-25 15:25 | 33.74223 | 1.11769 | 18012 ft | 366 kts | 223° |
| 2026-04-25 15:25 | 33.72406 | 1.09624 | 18012 ft | 366 kts | 223° |
| 2026-04-25 15:25 | 33.70588 | 1.07480 | 18011 ft | 366 kts | 223° |
| 2026-04-25 15:26 | 33.68583 | 1.05609 | 18009 ft | 366 kts | 211° |
| 2026-04-25 15:26 | 33.66258 | 1.04365 | 18014 ft | 367 kts | 199° |
| 2026-04-25 15:26 | 33.63751 | 1.03755 | 18007 ft | 370 kts | 188° |
| 2026-04-25 15:26 | 33.61153 | 1.03797 | 17998 ft | 375 kts | 176° |
| 2026-04-25 15:27 | 33.58604 | 1.04512 | 17991 ft | 380 kts | 165° |
| 2026-04-25 15:27 | 33.56203 | 1.05902 | 17985 ft | 387 kts | 153° |
| 2026-04-25 15:27 | 33.52369 | 1.10552 | 17969 ft | 405 kts | 127° |
| 2026-04-25 15:28 | 33.51182 | 1.13658 | 17965 ft | 414 kts | 112° |
| 2026-04-25 15:28 | 33.50639 | 1.17077 | 17962 ft | 423 kts | 98° |
| 2026-04-25 15:28 | 33.50806 | 1.20591 | 17958 ft | 432 kts | 83° |
| 2026-04-25 15:28 | 33.51723 | 1.24051 | 17959 ft | 439 kts | 68° |
| 2026-04-25 15:29 | 33.53356 | 1.27158 | 17957 ft | 443 kts | 51° |
| 2026-04-25 15:29 | 33.55505 | 1.29805 | 17960 ft | 448 kts | 44° |
| 2026-04-25 15:29 | 33.57828 | 1.32420 | 17956 ft | 465 kts | 44° |
| 2026-04-25 15:29 | 33.60194 | 1.35113 | 17958 ft | 470 kts | 44° |
| 2026-04-25 15:30 | 33.62542 | 1.37858 | 17954 ft | 469 kts | 45° |
| 2026-04-25 15:30 | 33.64861 | 1.40626 | 17952 ft | 470 kts | 46° |
| 2026-04-25 15:30 | 33.67171 | 1.43415 | 17947 ft | 470 kts | 46° |
| 2026-04-25 15:30 | 33.69481 | 1.46214 | 17945 ft | 470 kts | 46° |
| 2026-04-25 15:31 | 33.71782 | 1.49006 | 17939 ft | 470 kts | 46° |
| 2026-04-25 15:31 | 33.74081 | 1.51795 | 17932 ft | 470 kts | 46° |
| 2026-04-25 15:31 | 33.76352 | 1.54547 | 17930 ft | 470 kts | 46° |
| 2026-04-25 15:31 | 33.78693 | 1.57373 | 17931 ft | 469 kts | 44° |
| 2026-04-25 15:32 | 33.81243 | 1.59745 | 17935 ft | 470 kts | 31° |
| 2026-04-25 15:32 | 33.84111 | 1.61598 | 17931 ft | 470 kts | 30° |
| 2026-04-25 15:32 | 33.86721 | 1.63967 | 17938 ft | 470 kts | 44° |
| 2026-04-25 15:33 | 33.90291 | 1.70492 | 18752 ft | 468 kts | 72° |
| 2026-04-25 15:33 | 33.91101 | 1.74272 | 19229 ft | 465 kts | 85° |
| 2026-04-25 15:33 | 33.91220 | 1.78144 | 19655 ft | 463 kts | 98° |
| 2026-04-25 15:33 | 33.90649 | 1.81931 | 20054 ft | 459 kts | 111° |
| 2026-04-25 15:34 | 33.89469 | 1.85474 | 20008 ft | 453 kts | 123° |
| 2026-04-25 15:34 | 33.87758 | 1.88597 | 19978 ft | 444 kts | 131° |
| 2026-04-25 15:34 | 33.85920 | 1.91589 | 19977 ft | 444 kts | 131° |
| 2026-04-25 15:34 | 33.84699 | 1.93575 | 19975 ft | 444 kts | 131° |
| 2026-04-25 15:35 | 33.80408 | 2.00547 | 19978 ft | 442 kts | 133° |
| 2026-04-25 15:35 | 33.78274 | 2.03161 | 19981 ft | 433 kts | 146° |
| 2026-04-25 15:35 | 33.75762 | 2.05080 | 19977 ft | 424 kts | 159° |
| 2026-04-25 15:36 | 33.70268 | 2.07386 | 19973 ft | 420 kts | 166° |
| 2026-04-25 15:36 | 33.67494 | 2.08468 | 19967 ft | 419 kts | 166° |
| 2026-04-25 15:36 | 33.64718 | 2.09555 | 19970 ft | 419 kts | 166° |
| 2026-04-25 15:37 | 33.61939 | 2.10642 | 19965 ft | 419 kts | 166° |
| 2026-04-25 15:37 | 33.59162 | 2.11728 | 19966 ft | 420 kts | 166° |
| 2026-04-25 15:37 | 33.56386 | 2.12817 | 19969 ft | 419 kts | 166° |
| 2026-04-25 15:37 | 33.53604 | 2.13908 | 19959 ft | 420 kts | 166° |
| 2026-04-25 15:38 | 33.50859 | 2.14985 | 19963 ft | 420 kts | 166° |
| 2026-04-25 15:38 | 33.48075 | 2.16078 | 19961 ft | 420 kts | 166° |
| 2026-04-25 15:38 | 33.45298 | 2.17169 | 19957 ft | 420 kts | 166° |
| 2026-04-25 15:38 | 33.42512 | 2.18265 | 19957 ft | 421 kts | 166° |
| 2026-04-25 15:39 | 33.39731 | 2.19359 | 19954 ft | 421 kts | 166° |
| 2026-04-25 15:39 | 33.36946 | 2.20456 | 19954 ft | 422 kts | 166° |
| 2026-04-25 15:39 | 33.34156 | 2.21555 | 19951 ft | 422 kts | 166° |
| 2026-04-25 15:39 | 33.31368 | 2.22654 | 19950 ft | 422 kts | 166° |
| 2026-04-25 15:40 | 33.28573 | 2.23760 | 19946 ft | 422 kts | 166° |
| 2026-04-25 15:40 | 33.26729 | 2.24491 | 19946 ft | 423 kts | 166° |
| 2026-04-25 15:40 | 33.22986 | 2.25977 | 19944 ft | 423 kts | 166° |
| 2026-04-25 15:40 | 33.20184 | 2.27092 | 19947 ft | 424 kts | 166° |
| 2026-04-25 15:41 | 33.17382 | 2.28205 | 19943 ft | 424 kts | 167° |
| 2026-04-25 15:41 | 33.14616 | 2.29301 | 19942 ft | 424 kts | 167° |
| 2026-04-25 15:41 | 33.11812 | 2.30411 | 19941 ft | 425 kts | 167° |
| 2026-04-25 15:41 | 33.08997 | 2.31525 | 19938 ft | 426 kts | 167° |
| 2026-04-25 15:42 | 33.06193 | 2.32635 | 19940 ft | 425 kts | 167° |
| 2026-04-25 15:42 | 33.03374 | 2.33750 | 19983 ft | 428 kts | 167° |
| 2026-04-25 15:42 | 33.00536 | 2.34872 | 20405 ft | 430 kts | 167° |
| 2026-04-25 15:42 | 32.97688 | 2.35997 | 20837 ft | 433 kts | 167° |
| 2026-04-25 15:43 | 32.94811 | 2.37133 | 21230 ft | 438 kts | 167° |
| 2026-04-25 15:43 | 32.91898 | 2.38284 | 21636 ft | 441 kts | 167° |
| 2026-04-25 15:43 | 32.88969 | 2.39440 | 22045 ft | 445 kts | 167° |
| 2026-04-25 15:43 | 32.86010 | 2.40607 | 22434 ft | 450 kts | 168° |
| 2026-04-25 15:44 | 32.83052 | 2.41717 | 22822 ft | 449 kts | 173° |
| 2026-04-25 15:44 | 32.80012 | 2.42185 | 23586 ft | 433 kts | 185° |
| 2026-04-25 15:44 | 32.77049 | 2.41892 | 24018 ft | 425 kts | 197° |
| 2026-04-25 15:44 | 32.74250 | 2.40840 | 24405 ft | 419 kts | 209° |
| 2026-04-25 15:45 | 32.71768 | 2.39091 | 24778 ft | 414 kts | 221° |
| 2026-04-25 15:45 | 32.69737 | 2.36717 | 25477 ft | 401 kts | 234° |
| 2026-04-25 15:45 | 32.68279 | 2.33969 | 25966 ft | 387 kts | 246° |
| 2026-04-25 15:45 | 32.67653 | 2.32003 | 26152 ft | 384 kts | 254° |
| 2026-04-25 15:46 | 32.67279 | 2.27773 | 26469 ft | 392 kts | 271° |
| 2026-04-25 15:46 | 32.67788 | 2.24575 | 26646 ft | 398 kts | 284° |
| 2026-04-25 15:46 | 32.68954 | 2.21562 | 26785 ft | 406 kts | 296° |
| 2026-04-25 15:46 | 32.70723 | 2.18896 | 26878 ft | 418 kts | 308° |
| 2026-04-25 15:47 | 32.72989 | 2.16733 | 26883 ft | 430 kts | 320° |
| 2026-04-25 15:47 | 32.75710 | 2.15153 | 26885 ft | 442 kts | 332° |
| 2026-04-25 15:47 | 32.78642 | 2.13975 | 26887 ft | 444 kts | 334° |
| 2026-04-25 15:47 | 32.81577 | 2.12814 | 26891 ft | 444 kts | 334° |
| 2026-04-25 15:48 | 32.84513 | 2.11652 | 26891 ft | 444 kts | 334° |
| 2026-04-25 15:48 | 32.87448 | 2.10491 | 26893 ft | 444 kts | 334° |
| 2026-04-25 15:48 | 32.90379 | 2.09330 | 26898 ft | 444 kts | 334° |
| 2026-04-25 15:48 | 32.93310 | 2.08169 | 26897 ft | 444 kts | 334° |
| 2026-04-25 15:49 | 32.96249 | 2.07004 | 26903 ft | 445 kts | 334° |
| 2026-04-25 15:49 | 32.99182 | 2.05842 | 26903 ft | 445 kts | 334° |
| 2026-04-25 15:49 | 33.02121 | 2.04676 | 26900 ft | 445 kts | 334° |
| 2026-04-25 15:49 | 33.05053 | 2.03513 | 26907 ft | 445 kts | 334° |
| 2026-04-25 15:50 | 33.07008 | 2.02737 | 26904 ft | 445 kts | 334° |
| 2026-04-25 15:50 | 33.10907 | 2.01189 | 26909 ft | 445 kts | 334° |
| 2026-04-25 15:50 | 33.13851 | 2.00020 | 26910 ft | 445 kts | 334° |
| 2026-04-25 15:50 | 33.16796 | 1.98850 | 26912 ft | 445 kts | 334° |
| 2026-04-25 15:51 | 33.19737 | 1.97681 | 26912 ft | 445 kts | 334° |
| 2026-04-25 15:51 | 33.20724 | 1.97289 | 26911 ft | 445 kts | 334° |
| 2026-04-25 15:51 | 33.25626 | 1.95340 | 26917 ft | 446 kts | 334° |
| 2026-04-25 15:51 | 33.28572 | 1.94167 | 26917 ft | 446 kts | 334° |
| 2026-04-25 15:52 | 33.31482 | 1.93009 | 26917 ft | 446 kts | 334° |
| 2026-04-25 15:52 | 33.34421 | 1.91838 | 26919 ft | 446 kts | 334° |
| 2026-04-25 15:52 | 33.37369 | 1.90664 | 26921 ft | 446 kts | 334° |
| 2026-04-25 15:52 | 33.40345 | 1.89478 | 26926 ft | 446 kts | 334° |
| 2026-04-25 15:53 | 33.43249 | 1.88320 | 26928 ft | 445 kts | 334° |
| 2026-04-25 15:53 | 33.46193 | 1.87146 | 26933 ft | 445 kts | 334° |
| 2026-04-25 15:53 | 33.49137 | 1.85971 | 26935 ft | 445 kts | 334° |
| 2026-04-25 15:53 | 33.52081 | 1.84796 | 26937 ft | 445 kts | 334° |
| 2026-04-25 15:54 | 33.55021 | 1.83622 | 26938 ft | 445 kts | 334° |
| 2026-04-25 15:54 | 33.57968 | 1.82444 | 26943 ft | 445 kts | 334° |
| 2026-04-25 15:54 | 33.60910 | 1.81268 | 26941 ft | 446 kts | 334° |
| 2026-04-25 15:54 | 33.63845 | 1.80095 | 26943 ft | 445 kts | 334° |
| 2026-04-25 15:55 | 33.66790 | 1.78918 | 26945 ft | 445 kts | 334° |
| 2026-04-25 15:55 | 33.69728 | 1.77742 | 26953 ft | 445 kts | 334° |
| 2026-04-25 15:55 | 33.72665 | 1.76566 | 26947 ft | 445 kts | 334° |
| 2026-04-25 15:55 | 33.75614 | 1.75385 | 26947 ft | 445 kts | 334° |
| 2026-04-25 15:56 | 33.78515 | 1.74227 | 26946 ft | 446 kts | 335° |
| 2026-04-25 15:56 | 33.81561 | 1.73346 | 26950 ft | 456 kts | 346° |
| 2026-04-25 15:56 | 33.84767 | 1.73238 | 26954 ft | 466 kts | 359° |
| 2026-04-25 15:56 | 33.87981 | 1.73941 | 26954 ft | 475 kts | 11° |
| 2026-04-25 15:57 | 33.91064 | 1.75440 | 26957 ft | 482 kts | 24° |
| 2026-04-25 15:57 | 33.93876 | 1.77687 | 26959 ft | 488 kts | 37° |
| 2026-04-25 15:57 | 33.96286 | 1.80591 | 26958 ft | 492 kts | 49° |
| 2026-04-25 15:57 | 33.98184 | 1.84031 | 26962 ft | 494 kts | 62° |
| 2026-04-25 15:58 | 33.99487 | 1.87862 | 26958 ft | 494 kts | 74° |
| 2026-04-25 15:58 | 34.00136 | 1.91916 | 26965 ft | 492 kts | 86° |
| 2026-04-25 15:58 | 34.00110 | 1.95968 | 26955 ft | 488 kts | 99° |
| 2026-04-25 15:58 | 33.99413 | 1.99955 | 26958 ft | 483 kts | 112° |
| 2026-04-25 15:59 | 33.98085 | 2.03640 | 26961 ft | 477 kts | 124° |
| 2026-04-25 15:59 | 33.96193 | 2.06868 | 26960 ft | 469 kts | 137° |
| 2026-04-25 15:59 | 33.93831 | 2.09509 | 26956 ft | 459 kts | 149° |
| 2026-04-25 15:59 | 33.91112 | 2.11455 | 26955 ft | 449 kts | 162° |
| 2026-04-25 16:00 | 33.88194 | 2.12617 | 26958 ft | 437 kts | 175° |
| 2026-04-25 16:00 | 33.87183 | 2.12827 | 26953 ft | 433 kts | 179° |
| 2026-04-25 16:00 | 33.82306 | 2.12506 | 26950 ft | 416 kts | 200° |
| 2026-04-25 16:00 | 33.79630 | 2.11275 | 26951 ft | 407 kts | 213° |
| 2026-04-25 16:01 | 33.77329 | 2.09354 | 26948 ft | 400 kts | 225° |
| 2026-04-25 16:01 | 33.75514 | 2.06859 | 26947 ft | 395 kts | 238° |
| 2026-04-25 16:01 | 33.74273 | 2.03925 | 26950 ft | 394 kts | 250° |
| 2026-04-25 16:01 | 33.73661 | 2.00770 | 26950 ft | 394 kts | 260° |
| 2026-04-25 16:02 | 33.73257 | 1.97471 | 26947 ft | 394 kts | 260° |
| 2026-04-25 16:02 | 33.72863 | 1.94255 | 26949 ft | 394 kts | 260° |
| 2026-04-25 16:02 | 33.72463 | 1.90997 | 26945 ft | 394 kts | 260° |
| 2026-04-25 16:02 | 33.72064 | 1.87741 | 26940 ft | 394 kts | 260° |
| 2026-04-25 16:03 | 33.71664 | 1.84487 | 26946 ft | 394 kts | 260° |
| 2026-04-25 16:03 | 33.71265 | 1.81237 | 26947 ft | 393 kts | 260° |
| 2026-04-25 16:03 | 33.70865 | 1.77986 | 26946 ft | 393 kts | 260° |
| 2026-04-25 16:03 | 33.70465 | 1.74743 | 26950 ft | 393 kts | 260° |
| 2026-04-25 16:04 | 33.70064 | 1.71486 | 26946 ft | 394 kts | 260° |
| 2026-04-25 16:04 | 33.69662 | 1.68229 | 26942 ft | 393 kts | 260° |
| 2026-04-25 16:04 | 33.69261 | 1.64976 | 26946 ft | 393 kts | 260° |
| 2026-04-25 16:04 | 33.68858 | 1.61725 | 26941 ft | 393 kts | 260° |
| 2026-04-25 16:05 | 33.68455 | 1.58466 | 26945 ft | 395 kts | 260° |
| 2026-04-25 16:05 | 33.68052 | 1.55205 | 26943 ft | 394 kts | 260° |
| 2026-04-25 16:05 | 33.67382 | 1.49799 | 26946 ft | 394 kts | 260° |
| 2026-04-25 16:06 | 33.66978 | 1.46549 | 26957 ft | 395 kts | 260° |
| 2026-04-25 16:06 | 33.66442 | 1.42230 | 26968 ft | 395 kts | 260° |
| 2026-04-25 16:06 | 33.66167 | 1.40021 | 26976 ft | 395 kts | 260° |
| 2026-04-25 16:06 | 33.65630 | 1.35699 | 26982 ft | 395 kts | 260° |
| 2026-04-25 16:07 | 33.65223 | 1.32435 | 26991 ft | 396 kts | 260° |
| 2026-04-25 16:07 | 33.65086 | 1.31334 | 26993 ft | 396 kts | 260° |
| 2026-04-25 16:07 | 33.64540 | 1.26955 | 27006 ft | 395 kts | 260° |
| 2026-04-25 16:07 | 33.64138 | 1.23733 | 27012 ft | 395 kts | 261° |
| 2026-04-25 16:08 | 33.64031 | 1.20429 | 27019 ft | 400 kts | 272° |
| 2026-04-25 16:08 | 33.64599 | 1.17143 | 27028 ft | 406 kts | 285° |
| 2026-04-25 16:08 | 33.65822 | 1.14067 | 27027 ft | 413 kts | 297° |
| 2026-04-25 16:08 | 33.67638 | 1.11353 | 27032 ft | 422 kts | 308° |
| 2026-04-25 16:09 | 33.69746 | 1.08894 | 27027 ft | 426 kts | 311° |
| 2026-04-25 16:09 | 33.71935 | 1.06455 | 27028 ft | 426 kts | 311° |
| 2026-04-25 16:09 | 33.74096 | 1.04005 | 27056 ft | 426 kts | 310° |
| 2026-04-25 16:09 | 33.76219 | 1.01532 | 27056 ft | 426 kts | 310° |
| 2026-04-25 16:10 | 33.78338 | 0.99016 | 27052 ft | 426 kts | 310° |
| 2026-04-25 16:10 | 33.80434 | 0.96499 | 27043 ft | 427 kts | 309° |
| 2026-04-25 16:10 | 33.82505 | 0.94002 | 27036 ft | 427 kts | 309° |
| 2026-04-25 16:10 | 33.84603 | 0.91468 | 27025 ft | 427 kts | 309° |
| 2026-04-25 16:11 | 33.86698 | 0.88935 | 27015 ft | 428 kts | 310° |
| 2026-04-25 16:11 | 33.88797 | 0.86396 | 27009 ft | 428 kts | 310° |
| 2026-04-25 16:11 | 33.90903 | 0.83849 | 27009 ft | 428 kts | 310° |
| 2026-04-25 16:11 | 33.93004 | 0.81305 | 26994 ft | 429 kts | 310° |
| 2026-04-25 16:12 | 33.95114 | 0.78748 | 26990 ft | 429 kts | 310° |
| 2026-04-25 16:12 | 33.97215 | 0.76201 | 26990 ft | 430 kts | 310° |
| 2026-04-25 16:12 | 33.99329 | 0.73637 | 26994 ft | 430 kts | 310° |
| 2026-04-25 16:12 | 34.00729 | 0.71937 | 26991 ft | 430 kts | 310° |
| 2026-04-25 16:13 | 34.03529 | 0.68534 | 26998 ft | 436 kts | 310° |
| 2026-04-25 16:13 | 34.05691 | 0.65899 | 26997 ft | 448 kts | 310° |
| 2026-04-25 16:13 | 34.07914 | 0.63190 | 26999 ft | 460 kts | 310° |
| 2026-04-25 16:13 | 34.10190 | 0.60415 | 26990 ft | 469 kts | 311° |
| 2026-04-25 16:14 | 34.12495 | 0.57608 | 26990 ft | 469 kts | 311° |
| 2026-04-25 16:14 | 34.14790 | 0.54814 | 26996 ft | 470 kts | 311° |
| 2026-04-25 16:14 | 34.17088 | 0.52012 | 26999 ft | 470 kts | 311° |
| 2026-04-25 16:14 | 34.19393 | 0.49197 | 27018 ft | 471 kts | 311° |
| 2026-04-25 16:15 | 34.21700 | 0.46376 | 27025 ft | 472 kts | 311° |
| 2026-04-25 16:15 | 34.24017 | 0.43541 | 27031 ft | 473 kts | 311° |
| 2026-04-25 16:15 | 34.26333 | 0.40704 | 27015 ft | 474 kts | 311° |
| 2026-04-25 16:15 | 34.28656 | 0.37857 | 27017 ft | 475 kts | 311° |
| 2026-04-25 16:16 | 34.30945 | 0.35049 | 27020 ft | 476 kts | 311° |
| 2026-04-25 16:16 | 34.33303 | 0.32154 | 27026 ft | 476 kts | 311° |
| 2026-04-25 16:16 | 34.35599 | 0.29331 | 27034 ft | 477 kts | 311° |
| 2026-04-25 16:16 | 34.37930 | 0.26464 | 27039 ft | 477 kts | 311° |
| 2026-04-25 16:17 | 34.40262 | 0.23594 | 27043 ft | 478 kts | 311° |
| 2026-04-25 16:17 | 34.42599 | 0.20714 | 27045 ft | 479 kts | 311° |
| 2026-04-25 16:17 | 34.44930 | 0.17840 | 27045 ft | 479 kts | 311° |
| 2026-04-25 16:17 | 34.47274 | 0.14947 | 27047 ft | 479 kts | 311° |
| 2026-04-25 16:18 | 34.49574 | 0.12110 | 27046 ft | 465 kts | 311° |
| 2026-04-25 16:18 | 34.50307 | 0.11205 | 27046 ft | 460 kts | 311° |
| 2026-04-25 16:18 | 34.53932 | 0.06730 | 27045 ft | 433 kts | 311° |
| 2026-04-25 16:18 | 34.56025 | 0.04138 | 27049 ft | 429 kts | 311° |
| 2026-04-25 16:19 | 34.58129 | 0.01524 | 27048 ft | 436 kts | 311° |
| 2026-04-25 16:19 | 34.60256 | -0.01119 | 27047 ft | 437 kts | 311° |
| 2026-04-25 16:19 | 34.62371 | -0.03746 | 27254 ft | 433 kts | 311° |
| 2026-04-25 16:20 | 34.66488 | -0.08854 | 28837 ft | 418 kts | 311° |
| 2026-04-25 16:20 | 34.68528 | -0.11395 | 29276 ft | 418 kts | 311° |
| 2026-04-25 16:20 | 34.72477 | -0.16308 | 30896 ft | 400 kts | 311° |
| 2026-04-25 16:21 | 34.74405 | -0.18714 | 31236 ft | 403 kts | 311° |
| 2026-04-25 16:21 | 34.76356 | -0.21151 | 31696 ft | 402 kts | 311° |
| 2026-04-25 16:21 | 34.78302 | -0.23581 | 32207 ft | 399 kts | 311° |
| 2026-04-25 16:21 | 34.80245 | -0.26010 | 32493 ft | 404 kts | 311° |
| 2026-04-25 16:22 | 34.82226 | -0.28490 | 32580 ft | 412 kts | 311° |
| 2026-04-25 16:22 | 34.84243 | -0.31016 | 32841 ft | 416 kts | 311° |
| 2026-04-25 16:22 | 34.86258 | -0.33537 | 33300 ft | 415 kts | 311° |
| 2026-04-25 16:22 | 34.88269 | -0.36054 | 33784 ft | 413 kts | 311° |
| 2026-04-25 16:23 | 34.90266 | -0.38556 | 34181 ft | 413 kts | 311° |
| 2026-04-25 16:23 | 34.92279 | -0.41083 | 34397 ft | 417 kts | 311° |
| 2026-04-25 16:23 | 34.94316 | -0.43641 | 34703 ft | 418 kts | 311° |
| 2026-04-25 16:23 | 34.96338 | -0.46183 | 35070 ft | 417 kts | 311° |
| 2026-04-25 16:24 | 34.98357 | -0.48722 | 35450 ft | 416 kts | 311° |
| 2026-04-25 16:24 | 35.00347 | -0.51225 | 35820 ft | 415 kts | 311° |
| 2026-04-25 16:24 | 35.02354 | -0.53753 | 36191 ft | 414 kts | 311° |
| 2026-04-25 16:24 | 35.04362 | -0.56285 | 36554 ft | 413 kts | 311° |
| 2026-04-25 16:25 | 35.06367 | -0.58813 | 36891 ft | 412 kts | 311° |
| 2026-04-25 16:25 | 35.10328 | -0.63816 | 37039 ft | 415 kts | 311° |
| 2026-04-25 16:26 | 35.14426 | -0.69004 | 37018 ft | 431 kts | 311° |
| 2026-04-25 16:26 | 35.18687 | -0.74348 | 37015 ft | 448 kts | 316° |
| 2026-04-25 16:26 | 35.21234 | -0.76635 | 37018 ft | 459 kts | 328° |
| 2026-04-25 16:27 | 35.24132 | -0.78240 | 37029 ft | 469 kts | 340° |
| 2026-04-25 16:27 | 35.27352 | -0.79128 | 37016 ft | 478 kts | 352° |
| 2026-04-25 16:27 | 35.30698 | -0.79210 | 37033 ft | 484 kts | 4° |
| 2026-04-25 16:27 | 35.34015 | -0.78474 | 37027 ft | 485 kts | 15° |
| 2026-04-25 16:28 | 35.37150 | -0.76947 | 37027 ft | 486 kts | 27° |
| 2026-04-25 16:28 | 35.39990 | -0.74680 | 37023 ft | 486 kts | 39° |
| 2026-04-25 16:28 | 35.42447 | -0.71911 | 37017 ft | 486 kts | 44° |
| 2026-04-25 16:29 | 35.47635 | -0.66579 | 36996 ft | 486 kts | 35° |
| 2026-04-25 16:29 | 35.53343 | -0.62130 | 36982 ft | 485 kts | 30° |
| 2026-04-25 16:30 | 35.59142 | -0.58002 | 37008 ft | 485 kts | 30° |
| 2026-04-25 16:30 | 35.64987 | -0.53861 | 37011 ft | 484 kts | 30° |
| 2026-04-25 16:31 | 35.70823 | -0.49703 | 37014 ft | 484 kts | 30° |
| 2026-04-25 16:31 | 35.76621 | -0.45559 | 37016 ft | 483 kts | 30° |
| 2026-04-25 16:32 | 35.82445 | -0.41388 | 37035 ft | 484 kts | 30° |
| 2026-04-25 16:32 | 35.88229 | -0.37239 | 37035 ft | 483 kts | 30° |
| 2026-04-25 16:33 | 35.94045 | -0.33061 | 37033 ft | 484 kts | 31° |
| 2026-04-25 16:33 | 35.99859 | -0.28876 | 37030 ft | 483 kts | 31° |
| 2026-04-25 16:34 | 36.05642 | -0.24706 | 37009 ft | 484 kts | 31° |
| 2026-04-25 16:34 | 36.11449 | -0.20512 | 37009 ft | 484 kts | 31° |
| 2026-04-25 16:35 | 36.17252 | -0.16314 | 37005 ft | 484 kts | 31° |
| 2026-04-25 16:35 | 36.23080 | -0.12091 | 37029 ft | 484 kts | 31° |
| 2026-04-25 16:36 | 36.28894 | -0.07870 | 37030 ft | 484 kts | 31° |
| 2026-04-25 16:36 | 36.34676 | -0.03664 | 37035 ft | 484 kts | 31° |
| 2026-04-25 16:37 | 36.40493 | 0.00573 | 37028 ft | 485 kts | 31° |
| 2026-04-25 16:37 | 36.46314 | 0.04821 | 37031 ft | 485 kts | 31° |
| 2026-04-25 16:38 | 36.52119 | 0.09065 | 37028 ft | 485 kts | 31° |
| 2026-04-25 16:38 | 36.57941 | 0.13329 | 37034 ft | 484 kts | 31° |
| 2026-04-25 16:39 | 36.63749 | 0.17590 | 37036 ft | 484 kts | 31° |
| 2026-04-25 16:39 | 36.69523 | 0.21834 | 37034 ft | 484 kts | 31° |
| 2026-04-25 16:40 | 36.75329 | 0.26109 | 37037 ft | 484 kts | 31° |
| 2026-04-25 16:40 | 36.81132 | 0.30389 | 37037 ft | 484 kts | 31° |
| 2026-04-25 16:41 | 36.86928 | 0.34673 | 37040 ft | 484 kts | 31° |